<?xml version="1.0" encoding="UTF-8" standalone="no" ?>
<gpx xmlns="http://www.topografix.com/GPX/1/1" xmlns:xsi="http://www.w3.org/2001/XMLSchema-instance" xsi:schemaLocation="http://www.topografix.com/GPX/1/1 http://www.topografix.com/GPX/1/1/gpx.xsd" version="1.1" creator="VisuGPX - https://www.visugpx.com">
  <metadata>
    <name>Etape 3: Saint-Florent-sur-Cher&gt; Selles-sur-Cher</name>
    <desc><![CDATA[tape 3: Saint-Florent-sur-Cher> Selles-sur-Cher
Vendredi 15 juin]]></desc>
  </metadata>
  <trk>
    <name><![CDATA[20180610203831-LJrq6]]></name>
    <trkseg>
      <trkpt lat="47.01961" lon="2.29851">
        <ele>157</ele>
        <time>2018-04-17T08:58:58Z</time>
      </trkpt>
      <trkpt lat="47.01961" lon="2.29851">
        <ele>157</ele>
        <time>2018-04-17T08:59:08Z</time>
      </trkpt>
      <trkpt lat="47.01961" lon="2.29851">
        <ele>157</ele>
        <time>2018-04-17T08:59:20Z</time>
      </trkpt>
      <trkpt lat="47.01964" lon="2.29843">
        <ele>157</ele>
        <time>2018-04-17T08:59:25Z</time>
      </trkpt>
      <trkpt lat="47.01977" lon="2.2983">
        <ele>158</ele>
        <time>2018-04-17T08:59:29Z</time>
      </trkpt>
      <trkpt lat="47.01988" lon="2.29834">
        <ele>157</ele>
        <time>2018-04-17T08:59:32Z</time>
      </trkpt>
      <trkpt lat="47.01992" lon="2.29838">
        <ele>157</ele>
        <time>2018-04-17T08:59:33Z</time>
      </trkpt>
      <trkpt lat="47.02012" lon="2.29855">
        <ele>156</ele>
        <time>2018-04-17T08:59:38Z</time>
      </trkpt>
      <trkpt lat="47.02033" lon="2.29877">
        <ele>156</ele>
        <time>2018-04-17T08:59:44Z</time>
      </trkpt>
      <trkpt lat="47.02037" lon="2.29878">
        <ele>156</ele>
        <time>2018-04-17T08:59:45Z</time>
      </trkpt>
      <trkpt lat="47.0205" lon="2.29871">
        <ele>156</ele>
        <time>2018-04-17T08:59:49Z</time>
      </trkpt>
      <trkpt lat="47.02054" lon="2.29864">
        <ele>156</ele>
        <time>2018-04-17T08:59:51Z</time>
      </trkpt>
      <trkpt lat="47.02058" lon="2.29856">
        <ele>156</ele>
        <time>2018-04-17T08:59:54Z</time>
      </trkpt>
      <trkpt lat="47.02062" lon="2.29848">
        <ele>156</ele>
        <time>2018-04-17T09:00:00Z</time>
      </trkpt>
      <trkpt lat="47.02068" lon="2.29838">
        <ele>155</ele>
        <time>2018-04-17T09:00:06Z</time>
      </trkpt>
      <trkpt lat="47.02084" lon="2.29812">
        <ele>155</ele>
        <time>2018-04-17T09:00:16Z</time>
      </trkpt>
      <trkpt lat="47.021" lon="2.29786">
        <ele>156</ele>
        <time>2018-04-17T09:00:24Z</time>
      </trkpt>
      <trkpt lat="47.02117" lon="2.29762">
        <ele>156</ele>
        <time>2018-04-17T09:00:31Z</time>
      </trkpt>
      <trkpt lat="47.02126" lon="2.29749">
        <ele>157</ele>
        <time>2018-04-17T09:00:34Z</time>
      </trkpt>
      <trkpt lat="47.02137" lon="2.29732">
        <ele>157</ele>
        <time>2018-04-17T09:00:38Z</time>
      </trkpt>
      <trkpt lat="47.02146" lon="2.2972">
        <ele>157</ele>
        <time>2018-04-17T09:00:41Z</time>
      </trkpt>
      <trkpt lat="47.02157" lon="2.29706">
        <ele>157</ele>
        <time>2018-04-17T09:00:44Z</time>
      </trkpt>
      <trkpt lat="47.02161" lon="2.29701">
        <ele>157</ele>
        <time>2018-04-17T09:00:45Z</time>
      </trkpt>
      <trkpt lat="47.02183" lon="2.29675">
        <ele>155</ele>
        <time>2018-04-17T09:00:50Z</time>
      </trkpt>
      <trkpt lat="47.02193" lon="2.29666">
        <ele>155</ele>
        <time>2018-04-17T09:00:52Z</time>
      </trkpt>
      <trkpt lat="47.02217" lon="2.29651">
        <ele>154</ele>
        <time>2018-04-17T09:00:56Z</time>
      </trkpt>
      <trkpt lat="47.02228" lon="2.29643">
        <ele>153</ele>
        <time>2018-04-17T09:00:58Z</time>
      </trkpt>
      <trkpt lat="47.02245" lon="2.29631">
        <ele>153</ele>
        <time>2018-04-17T09:01:01Z</time>
      </trkpt>
      <trkpt lat="47.0225" lon="2.29615">
        <ele>153</ele>
        <time>2018-04-17T09:01:03Z</time>
      </trkpt>
      <trkpt lat="47.02251" lon="2.29583">
        <ele>152</ele>
        <time>2018-04-17T09:01:07Z</time>
      </trkpt>
      <trkpt lat="47.02248" lon="2.29542">
        <ele>152</ele>
        <time>2018-04-17T09:01:12Z</time>
      </trkpt>
      <trkpt lat="47.02244" lon="2.29528">
        <ele>152</ele>
        <time>2018-04-17T09:01:14Z</time>
      </trkpt>
      <trkpt lat="47.02239" lon="2.29511">
        <ele>151</ele>
        <time>2018-04-17T09:01:17Z</time>
      </trkpt>
      <trkpt lat="47.02234" lon="2.295">
        <ele>150</ele>
        <time>2018-04-17T09:01:19Z</time>
      </trkpt>
      <trkpt lat="47.02229" lon="2.2949">
        <ele>151</ele>
        <time>2018-04-17T09:01:21Z</time>
      </trkpt>
      <trkpt lat="47.0222" lon="2.29473">
        <ele>151</ele>
        <time>2018-04-17T09:01:25Z</time>
      </trkpt>
      <trkpt lat="47.02216" lon="2.29463">
        <ele>151</ele>
        <time>2018-04-17T09:01:29Z</time>
      </trkpt>
      <trkpt lat="47.02217" lon="2.29464">
        <ele>151</ele>
        <time>2018-04-17T09:01:30Z</time>
      </trkpt>
      <trkpt lat="47.02216" lon="2.29463">
        <ele>151</ele>
        <time>2018-04-17T09:01:42Z</time>
      </trkpt>
      <trkpt lat="47.02216" lon="2.29463">
        <ele>151</ele>
        <time>2018-04-17T09:01:54Z</time>
      </trkpt>
      <trkpt lat="47.02216" lon="2.29463">
        <ele>151</ele>
        <time>2018-04-17T09:02:10Z</time>
      </trkpt>
      <trkpt lat="47.02216" lon="2.29463">
        <ele>151</ele>
        <time>2018-04-17T09:02:25Z</time>
      </trkpt>
      <trkpt lat="47.02216" lon="2.29463">
        <ele>151</ele>
        <time>2018-04-17T09:02:35Z</time>
      </trkpt>
      <trkpt lat="47.02216" lon="2.29463">
        <ele>151</ele>
        <time>2018-04-17T09:02:47Z</time>
      </trkpt>
      <trkpt lat="47.02217" lon="2.2946">
        <ele>151</ele>
        <time>2018-04-17T09:02:51Z</time>
      </trkpt>
      <trkpt lat="47.02218" lon="2.29457">
        <ele>151</ele>
        <time>2018-04-17T09:02:53Z</time>
      </trkpt>
      <trkpt lat="47.02221" lon="2.29452">
        <ele>150</ele>
        <time>2018-04-17T09:02:56Z</time>
      </trkpt>
      <trkpt lat="47.02223" lon="2.29446">
        <ele>150</ele>
        <time>2018-04-17T09:02:58Z</time>
      </trkpt>
      <trkpt lat="47.02226" lon="2.29423">
        <ele>150</ele>
        <time>2018-04-17T09:03:03Z</time>
      </trkpt>
      <trkpt lat="47.02229" lon="2.29412">
        <ele>148</ele>
        <time>2018-04-17T09:03:05Z</time>
      </trkpt>
      <trkpt lat="47.02234" lon="2.29401">
        <ele>148</ele>
        <time>2018-04-17T09:03:07Z</time>
      </trkpt>
      <trkpt lat="47.02238" lon="2.29396">
        <ele>148</ele>
        <time>2018-04-17T09:03:08Z</time>
      </trkpt>
      <trkpt lat="47.02247" lon="2.29388">
        <ele>148</ele>
        <time>2018-04-17T09:03:10Z</time>
      </trkpt>
      <trkpt lat="47.02251" lon="2.29385">
        <ele>148</ele>
        <time>2018-04-17T09:03:11Z</time>
      </trkpt>
      <trkpt lat="47.02265" lon="2.29376">
        <ele>148</ele>
        <time>2018-04-17T09:03:14Z</time>
      </trkpt>
      <trkpt lat="47.02278" lon="2.2937">
        <ele>148</ele>
        <time>2018-04-17T09:03:17Z</time>
      </trkpt>
      <trkpt lat="47.02285" lon="2.29369">
        <ele>148</ele>
        <time>2018-04-17T09:03:19Z</time>
      </trkpt>
      <trkpt lat="47.02302" lon="2.29375">
        <ele>148</ele>
        <time>2018-04-17T09:03:24Z</time>
      </trkpt>
      <trkpt lat="47.02316" lon="2.29374">
        <ele>148</ele>
        <time>2018-04-17T09:03:29Z</time>
      </trkpt>
      <trkpt lat="47.02318" lon="2.29371">
        <ele>148</ele>
        <time>2018-04-17T09:03:30Z</time>
      </trkpt>
      <trkpt lat="47.02321" lon="2.29364">
        <ele>148</ele>
        <time>2018-04-17T09:03:34Z</time>
      </trkpt>
      <trkpt lat="47.02323" lon="2.2936">
        <ele>148</ele>
        <time>2018-04-17T09:03:37Z</time>
      </trkpt>
      <trkpt lat="47.02323" lon="2.29359">
        <ele>148</ele>
        <time>2018-04-17T09:03:40Z</time>
      </trkpt>
      <trkpt lat="47.02324" lon="2.29359">
        <ele>148</ele>
        <time>2018-04-17T09:03:49Z</time>
      </trkpt>
      <trkpt lat="47.02324" lon="2.29359">
        <ele>148</ele>
        <time>2018-04-17T09:04:02Z</time>
      </trkpt>
      <trkpt lat="47.02325" lon="2.29358">
        <ele>148</ele>
        <time>2018-04-17T09:04:06Z</time>
      </trkpt>
      <trkpt lat="47.02325" lon="2.29359">
        <ele>148</ele>
        <time>2018-04-17T09:04:07Z</time>
      </trkpt>
      <trkpt lat="47.02327" lon="2.29357">
        <ele>148</ele>
        <time>2018-04-17T09:04:14Z</time>
      </trkpt>
      <trkpt lat="47.02337" lon="2.29342">
        <ele>149</ele>
        <time>2018-04-17T09:04:19Z</time>
      </trkpt>
      <trkpt lat="47.02351" lon="2.29315">
        <ele>147</ele>
        <time>2018-04-17T09:04:25Z</time>
      </trkpt>
      <trkpt lat="47.02355" lon="2.29303">
        <ele>146</ele>
        <time>2018-04-17T09:04:30Z</time>
      </trkpt>
      <trkpt lat="47.02355" lon="2.29302">
        <ele>146</ele>
        <time>2018-04-17T09:04:32Z</time>
      </trkpt>
      <trkpt lat="47.02355" lon="2.29302">
        <ele>146</ele>
        <time>2018-04-17T09:04:40Z</time>
      </trkpt>
      <trkpt lat="47.02355" lon="2.29302">
        <ele>146</ele>
        <time>2018-04-17T09:04:51Z</time>
      </trkpt>
      <trkpt lat="47.02355" lon="2.29302">
        <ele>146</ele>
        <time>2018-04-17T09:05:01Z</time>
      </trkpt>
      <trkpt lat="47.02355" lon="2.29302">
        <ele>146</ele>
        <time>2018-04-17T09:05:16Z</time>
      </trkpt>
      <trkpt lat="47.02355" lon="2.29302">
        <ele>146</ele>
        <time>2018-04-17T09:05:29Z</time>
      </trkpt>
      <trkpt lat="47.02355" lon="2.29302">
        <ele>146</ele>
        <time>2018-04-17T09:05:46Z</time>
      </trkpt>
      <trkpt lat="47.02355" lon="2.29302">
        <ele>146</ele>
        <time>2018-04-17T09:06:08Z</time>
      </trkpt>
      <trkpt lat="47.02355" lon="2.29302">
        <ele>146</ele>
        <time>2018-04-17T09:06:28Z</time>
      </trkpt>
      <trkpt lat="47.02355" lon="2.29303">
        <ele>146</ele>
        <time>2018-04-17T09:06:45Z</time>
      </trkpt>
      <trkpt lat="47.02355" lon="2.29303">
        <ele>146</ele>
        <time>2018-04-17T09:06:59Z</time>
      </trkpt>
      <trkpt lat="47.02355" lon="2.29303">
        <ele>146</ele>
        <time>2018-04-17T09:07:17Z</time>
      </trkpt>
      <trkpt lat="47.02355" lon="2.29303">
        <ele>146</ele>
        <time>2018-04-17T09:07:27Z</time>
      </trkpt>
      <trkpt lat="47.02355" lon="2.29303">
        <ele>146</ele>
        <time>2018-04-17T09:07:42Z</time>
      </trkpt>
      <trkpt lat="47.02354" lon="2.29303">
        <ele>146</ele>
        <time>2018-04-17T09:07:59Z</time>
      </trkpt>
      <trkpt lat="47.02354" lon="2.29303">
        <ele>146</ele>
        <time>2018-04-17T09:08:12Z</time>
      </trkpt>
      <trkpt lat="47.02354" lon="2.29303">
        <ele>146</ele>
        <time>2018-04-17T09:08:25Z</time>
      </trkpt>
      <trkpt lat="47.02354" lon="2.29303">
        <ele>146</ele>
        <time>2018-04-17T09:08:38Z</time>
      </trkpt>
      <trkpt lat="47.02354" lon="2.29303">
        <ele>146</ele>
        <time>2018-04-17T09:08:53Z</time>
      </trkpt>
      <trkpt lat="47.02354" lon="2.29303">
        <ele>146</ele>
        <time>2018-04-17T09:09:11Z</time>
      </trkpt>
      <trkpt lat="47.02354" lon="2.29303">
        <ele>146</ele>
        <time>2018-04-17T09:09:27Z</time>
      </trkpt>
      <trkpt lat="47.02354" lon="2.29303">
        <ele>146</ele>
        <time>2018-04-17T09:09:29Z</time>
      </trkpt>
      <trkpt lat="47.02354" lon="2.29303">
        <ele>146</ele>
        <time>2018-04-17T09:09:43Z</time>
      </trkpt>
      <trkpt lat="47.02354" lon="2.29303">
        <ele>146</ele>
        <time>2018-04-17T09:09:57Z</time>
      </trkpt>
      <trkpt lat="47.02354" lon="2.29302">
        <ele>146</ele>
        <time>2018-04-17T09:10:11Z</time>
      </trkpt>
      <trkpt lat="47.02354" lon="2.29302">
        <ele>146</ele>
        <time>2018-04-17T09:10:24Z</time>
      </trkpt>
      <trkpt lat="47.02354" lon="2.29302">
        <ele>146</ele>
        <time>2018-04-17T09:10:38Z</time>
      </trkpt>
      <trkpt lat="47.02353" lon="2.29302">
        <ele>146</ele>
        <time>2018-04-17T09:10:56Z</time>
      </trkpt>
      <trkpt lat="47.02353" lon="2.29302">
        <ele>146</ele>
        <time>2018-04-17T09:11:08Z</time>
      </trkpt>
      <trkpt lat="47.02353" lon="2.29302">
        <ele>146</ele>
        <time>2018-04-17T09:11:24Z</time>
      </trkpt>
      <trkpt lat="47.02353" lon="2.29302">
        <ele>146</ele>
        <time>2018-04-17T09:11:37Z</time>
      </trkpt>
      <trkpt lat="47.02353" lon="2.29302">
        <ele>146</ele>
        <time>2018-04-17T09:11:52Z</time>
      </trkpt>
      <trkpt lat="47.02353" lon="2.29302">
        <ele>146</ele>
        <time>2018-04-17T09:12:05Z</time>
      </trkpt>
      <trkpt lat="47.02353" lon="2.29303">
        <ele>146</ele>
        <time>2018-04-17T09:12:22Z</time>
      </trkpt>
      <trkpt lat="47.02353" lon="2.29303">
        <ele>146</ele>
        <time>2018-04-17T09:12:38Z</time>
      </trkpt>
      <trkpt lat="47.02353" lon="2.29303">
        <ele>146</ele>
        <time>2018-04-17T09:12:43Z</time>
      </trkpt>
      <trkpt lat="47.02353" lon="2.29303">
        <ele>146</ele>
        <time>2018-04-17T09:12:51Z</time>
      </trkpt>
      <trkpt lat="47.02353" lon="2.29303">
        <ele>146</ele>
        <time>2018-04-17T09:13:07Z</time>
      </trkpt>
      <trkpt lat="47.02353" lon="2.29303">
        <ele>146</ele>
        <time>2018-04-17T09:13:22Z</time>
      </trkpt>
      <trkpt lat="47.02353" lon="2.29301">
        <ele>146</ele>
        <time>2018-04-17T09:13:39Z</time>
      </trkpt>
      <trkpt lat="47.02359" lon="2.29289">
        <ele>146</ele>
        <time>2018-04-17T09:13:45Z</time>
      </trkpt>
      <trkpt lat="47.02366" lon="2.29271">
        <ele>145</ele>
        <time>2018-04-17T09:13:50Z</time>
      </trkpt>
      <trkpt lat="47.02368" lon="2.29266">
        <ele>145</ele>
        <time>2018-04-17T09:13:51Z</time>
      </trkpt>
      <trkpt lat="47.02373" lon="2.29255">
        <ele>145</ele>
        <time>2018-04-17T09:13:53Z</time>
      </trkpt>
      <trkpt lat="47.02381" lon="2.29235">
        <ele>143</ele>
        <time>2018-04-17T09:13:56Z</time>
      </trkpt>
      <trkpt lat="47.02399" lon="2.29201">
        <ele>144</ele>
        <time>2018-04-17T09:14:01Z</time>
      </trkpt>
      <trkpt lat="47.02406" lon="2.2919">
        <ele>144</ele>
        <time>2018-04-17T09:14:03Z</time>
      </trkpt>
      <trkpt lat="47.02414" lon="2.29176">
        <ele>144</ele>
        <time>2018-04-17T09:14:06Z</time>
      </trkpt>
      <trkpt lat="47.02418" lon="2.29169">
        <ele>145</ele>
        <time>2018-04-17T09:14:08Z</time>
      </trkpt>
      <trkpt lat="47.0242" lon="2.29165">
        <ele>146</ele>
        <time>2018-04-17T09:14:09Z</time>
      </trkpt>
      <trkpt lat="47.02425" lon="2.29154">
        <ele>147</ele>
        <time>2018-04-17T09:14:12Z</time>
      </trkpt>
      <trkpt lat="47.02428" lon="2.29147">
        <ele>147</ele>
        <time>2018-04-17T09:14:14Z</time>
      </trkpt>
      <trkpt lat="47.02433" lon="2.29136">
        <ele>148</ele>
        <time>2018-04-17T09:14:17Z</time>
      </trkpt>
      <trkpt lat="47.02442" lon="2.29118">
        <ele>148</ele>
        <time>2018-04-17T09:14:22Z</time>
      </trkpt>
      <trkpt lat="47.02444" lon="2.29115">
        <ele>148</ele>
        <time>2018-04-17T09:14:23Z</time>
      </trkpt>
      <trkpt lat="47.02453" lon="2.29099">
        <ele>149</ele>
        <time>2018-04-17T09:14:28Z</time>
      </trkpt>
      <trkpt lat="47.02459" lon="2.2909">
        <ele>149</ele>
        <time>2018-04-17T09:14:31Z</time>
      </trkpt>
      <trkpt lat="47.0248" lon="2.29064">
        <ele>150</ele>
        <time>2018-04-17T09:14:40Z</time>
      </trkpt>
      <trkpt lat="47.02489" lon="2.29054">
        <ele>150</ele>
        <time>2018-04-17T09:14:44Z</time>
      </trkpt>
      <trkpt lat="47.02501" lon="2.29041">
        <ele>151</ele>
        <time>2018-04-17T09:14:49Z</time>
      </trkpt>
      <trkpt lat="47.0252" lon="2.29019">
        <ele>150</ele>
        <time>2018-04-17T09:14:57Z</time>
      </trkpt>
      <trkpt lat="47.02531" lon="2.29">
        <ele>150</ele>
        <time>2018-04-17T09:15:04Z</time>
      </trkpt>
      <trkpt lat="47.02543" lon="2.28979">
        <ele>149</ele>
        <time>2018-04-17T09:15:11Z</time>
      </trkpt>
      <trkpt lat="47.02561" lon="2.28948">
        <ele>149</ele>
        <time>2018-04-17T09:15:18Z</time>
      </trkpt>
      <trkpt lat="47.02572" lon="2.2893">
        <ele>149</ele>
        <time>2018-04-17T09:15:22Z</time>
      </trkpt>
      <trkpt lat="47.02583" lon="2.28911">
        <ele>148</ele>
        <time>2018-04-17T09:15:26Z</time>
      </trkpt>
      <trkpt lat="47.0259" lon="2.28901">
        <ele>147</ele>
        <time>2018-04-17T09:15:28Z</time>
      </trkpt>
      <trkpt lat="47.02608" lon="2.28868">
        <ele>146</ele>
        <time>2018-04-17T09:15:34Z</time>
      </trkpt>
      <trkpt lat="47.02621" lon="2.28844">
        <ele>146</ele>
        <time>2018-04-17T09:15:38Z</time>
      </trkpt>
      <trkpt lat="47.02636" lon="2.28818">
        <ele>144</ele>
        <time>2018-04-17T09:15:42Z</time>
      </trkpt>
      <trkpt lat="47.02643" lon="2.28804">
        <ele>144</ele>
        <time>2018-04-17T09:15:44Z</time>
      </trkpt>
      <trkpt lat="47.02659" lon="2.28774">
        <ele>143</ele>
        <time>2018-04-17T09:15:48Z</time>
      </trkpt>
      <trkpt lat="47.02675" lon="2.28744">
        <ele>142</ele>
        <time>2018-04-17T09:15:52Z</time>
      </trkpt>
      <trkpt lat="47.02692" lon="2.28714">
        <ele>142</ele>
        <time>2018-04-17T09:15:56Z</time>
      </trkpt>
      <trkpt lat="47.02711" lon="2.28678">
        <ele>142</ele>
        <time>2018-04-17T09:16:01Z</time>
      </trkpt>
      <trkpt lat="47.02732" lon="2.28638">
        <ele>142</ele>
        <time>2018-04-17T09:16:07Z</time>
      </trkpt>
      <trkpt lat="47.02742" lon="2.2862">
        <ele>143</ele>
        <time>2018-04-17T09:16:10Z</time>
      </trkpt>
      <trkpt lat="47.02753" lon="2.28597">
        <ele>142</ele>
        <time>2018-04-17T09:16:14Z</time>
      </trkpt>
      <trkpt lat="47.02761" lon="2.28581">
        <ele>142</ele>
        <time>2018-04-17T09:16:17Z</time>
      </trkpt>
      <trkpt lat="47.02769" lon="2.28563">
        <ele>142</ele>
        <time>2018-04-17T09:16:20Z</time>
      </trkpt>
      <trkpt lat="47.02775" lon="2.2855">
        <ele>142</ele>
        <time>2018-04-17T09:16:22Z</time>
      </trkpt>
      <trkpt lat="47.02778" lon="2.28543">
        <ele>141</ele>
        <time>2018-04-17T09:16:23Z</time>
      </trkpt>
      <trkpt lat="47.02792" lon="2.28514">
        <ele>141</ele>
        <time>2018-04-17T09:16:27Z</time>
      </trkpt>
      <trkpt lat="47.028" lon="2.28499">
        <ele>141</ele>
        <time>2018-04-17T09:16:29Z</time>
      </trkpt>
      <trkpt lat="47.02808" lon="2.28484">
        <ele>140</ele>
        <time>2018-04-17T09:16:31Z</time>
      </trkpt>
      <trkpt lat="47.02818" lon="2.28469">
        <ele>140</ele>
        <time>2018-04-17T09:16:33Z</time>
      </trkpt>
      <trkpt lat="47.02836" lon="2.28437">
        <ele>139</ele>
        <time>2018-04-17T09:16:37Z</time>
      </trkpt>
      <trkpt lat="47.02842" lon="2.28419">
        <ele>139</ele>
        <time>2018-04-17T09:16:39Z</time>
      </trkpt>
      <trkpt lat="47.02844" lon="2.284">
        <ele>138</ele>
        <time>2018-04-17T09:16:41Z</time>
      </trkpt>
      <trkpt lat="47.02837" lon="2.28367">
        <ele>138</ele>
        <time>2018-04-17T09:16:45Z</time>
      </trkpt>
      <trkpt lat="47.02835" lon="2.2836">
        <ele>138</ele>
        <time>2018-04-17T09:16:46Z</time>
      </trkpt>
      <trkpt lat="47.02829" lon="2.28346">
        <ele>140</ele>
        <time>2018-04-17T09:16:48Z</time>
      </trkpt>
      <trkpt lat="47.02822" lon="2.28326">
        <ele>141</ele>
        <time>2018-04-17T09:16:51Z</time>
      </trkpt>
      <trkpt lat="47.02815" lon="2.28292">
        <ele>141</ele>
        <time>2018-04-17T09:16:56Z</time>
      </trkpt>
      <trkpt lat="47.02814" lon="2.28286">
        <ele>141</ele>
        <time>2018-04-17T09:16:57Z</time>
      </trkpt>
      <trkpt lat="47.02814" lon="2.28272">
        <ele>142</ele>
        <time>2018-04-17T09:16:59Z</time>
      </trkpt>
      <trkpt lat="47.02816" lon="2.28239">
        <ele>142</ele>
        <time>2018-04-17T09:17:04Z</time>
      </trkpt>
      <trkpt lat="47.02816" lon="2.28232">
        <ele>142</ele>
        <time>2018-04-17T09:17:05Z</time>
      </trkpt>
      <trkpt lat="47.02817" lon="2.28207">
        <ele>143</ele>
        <time>2018-04-17T09:17:09Z</time>
      </trkpt>
      <trkpt lat="47.02818" lon="2.28183">
        <ele>143</ele>
        <time>2018-04-17T09:17:13Z</time>
      </trkpt>
      <trkpt lat="47.02822" lon="2.28149">
        <ele>144</ele>
        <time>2018-04-17T09:17:18Z</time>
      </trkpt>
      <trkpt lat="47.02826" lon="2.28136">
        <ele>144</ele>
        <time>2018-04-17T09:17:20Z</time>
      </trkpt>
      <trkpt lat="47.02845" lon="2.28085">
        <ele>143</ele>
        <time>2018-04-17T09:17:28Z</time>
      </trkpt>
      <trkpt lat="47.02856" lon="2.28059">
        <ele>142</ele>
        <time>2018-04-17T09:17:32Z</time>
      </trkpt>
      <trkpt lat="47.0286" lon="2.28046">
        <ele>142</ele>
        <time>2018-04-17T09:17:34Z</time>
      </trkpt>
      <trkpt lat="47.02865" lon="2.28032">
        <ele>142</ele>
        <time>2018-04-17T09:17:36Z</time>
      </trkpt>
      <trkpt lat="47.02879" lon="2.27998">
        <ele>144</ele>
        <time>2018-04-17T09:17:41Z</time>
      </trkpt>
      <trkpt lat="47.02893" lon="2.27967">
        <ele>144</ele>
        <time>2018-04-17T09:17:46Z</time>
      </trkpt>
      <trkpt lat="47.02899" lon="2.27956">
        <ele>144</ele>
        <time>2018-04-17T09:17:48Z</time>
      </trkpt>
      <trkpt lat="47.02902" lon="2.2795">
        <ele>144</ele>
        <time>2018-04-17T09:17:49Z</time>
      </trkpt>
      <trkpt lat="47.0292" lon="2.27935">
        <ele>143</ele>
        <time>2018-04-17T09:17:53Z</time>
      </trkpt>
      <trkpt lat="47.0294" lon="2.27928">
        <ele>143</ele>
        <time>2018-04-17T09:17:57Z</time>
      </trkpt>
      <trkpt lat="47.02945" lon="2.27927">
        <ele>143</ele>
        <time>2018-04-17T09:17:58Z</time>
      </trkpt>
      <trkpt lat="47.02986" lon="2.27914">
        <ele>143</ele>
        <time>2018-04-17T09:18:07Z</time>
      </trkpt>
      <trkpt lat="47.03018" lon="2.27901">
        <ele>143</ele>
        <time>2018-04-17T09:18:14Z</time>
      </trkpt>
      <trkpt lat="47.0305" lon="2.27891">
        <ele>142</ele>
        <time>2018-04-17T09:18:19Z</time>
      </trkpt>
      <trkpt lat="47.03066" lon="2.27874">
        <ele>142</ele>
        <time>2018-04-17T09:18:23Z</time>
      </trkpt>
      <trkpt lat="47.03069" lon="2.2787">
        <ele>142</ele>
        <time>2018-04-17T09:18:24Z</time>
      </trkpt>
      <trkpt lat="47.03079" lon="2.27858">
        <ele>142</ele>
        <time>2018-04-17T09:18:28Z</time>
      </trkpt>
      <trkpt lat="47.03086" lon="2.27849">
        <ele>142</ele>
        <time>2018-04-17T09:18:32Z</time>
      </trkpt>
      <trkpt lat="47.03088" lon="2.27847">
        <ele>142</ele>
        <time>2018-04-17T09:18:34Z</time>
      </trkpt>
      <trkpt lat="47.03089" lon="2.27847">
        <ele>142</ele>
        <time>2018-04-17T09:18:35Z</time>
      </trkpt>
      <trkpt lat="47.03091" lon="2.27847">
        <ele>142</ele>
        <time>2018-04-17T09:18:38Z</time>
      </trkpt>
      <trkpt lat="47.0309" lon="2.27847">
        <ele>142</ele>
        <time>2018-04-17T09:18:39Z</time>
      </trkpt>
      <trkpt lat="47.03091" lon="2.27847">
        <ele>142</ele>
        <time>2018-04-17T09:18:45Z</time>
      </trkpt>
      <trkpt lat="47.03091" lon="2.27846">
        <ele>142</ele>
        <time>2018-04-17T09:18:52Z</time>
      </trkpt>
      <trkpt lat="47.03091" lon="2.27846">
        <ele>142</ele>
        <time>2018-04-17T09:19:06Z</time>
      </trkpt>
      <trkpt lat="47.03089" lon="2.27847">
        <ele>142</ele>
        <time>2018-04-17T09:19:09Z</time>
      </trkpt>
      <trkpt lat="47.03086" lon="2.27851">
        <ele>142</ele>
        <time>2018-04-17T09:19:12Z</time>
      </trkpt>
      <trkpt lat="47.0308" lon="2.27857">
        <ele>142</ele>
        <time>2018-04-17T09:19:16Z</time>
      </trkpt>
      <trkpt lat="47.03079" lon="2.27857">
        <ele>142</ele>
        <time>2018-04-17T09:19:17Z</time>
      </trkpt>
      <trkpt lat="47.03077" lon="2.27858">
        <ele>142</ele>
        <time>2018-04-17T09:19:18Z</time>
      </trkpt>
      <trkpt lat="47.03065" lon="2.27868">
        <ele>142</ele>
        <time>2018-04-17T09:19:24Z</time>
      </trkpt>
      <trkpt lat="47.03058" lon="2.27886">
        <ele>142</ele>
        <time>2018-04-17T09:19:31Z</time>
      </trkpt>
      <trkpt lat="47.03064" lon="2.27893">
        <ele>142</ele>
        <time>2018-04-17T09:19:36Z</time>
      </trkpt>
      <trkpt lat="47.03067" lon="2.27894">
        <ele>142</ele>
        <time>2018-04-17T09:19:37Z</time>
      </trkpt>
      <trkpt lat="47.03081" lon="2.279">
        <ele>142</ele>
        <time>2018-04-17T09:19:41Z</time>
      </trkpt>
      <trkpt lat="47.03089" lon="2.27904">
        <ele>142</ele>
        <time>2018-04-17T09:19:43Z</time>
      </trkpt>
      <trkpt lat="47.03107" lon="2.27912">
        <ele>142</ele>
        <time>2018-04-17T09:19:47Z</time>
      </trkpt>
      <trkpt lat="47.03142" lon="2.2793">
        <ele>141</ele>
        <time>2018-04-17T09:19:54Z</time>
      </trkpt>
      <trkpt lat="47.03152" lon="2.27935">
        <ele>141</ele>
        <time>2018-04-17T09:19:56Z</time>
      </trkpt>
      <trkpt lat="47.03176" lon="2.27954">
        <ele>139</ele>
        <time>2018-04-17T09:20:02Z</time>
      </trkpt>
      <trkpt lat="47.03186" lon="2.27968">
        <ele>139</ele>
        <time>2018-04-17T09:20:05Z</time>
      </trkpt>
      <trkpt lat="47.03198" lon="2.27988">
        <ele>139</ele>
        <time>2018-04-17T09:20:09Z</time>
      </trkpt>
      <trkpt lat="47.03201" lon="2.27993">
        <ele>139</ele>
        <time>2018-04-17T09:20:10Z</time>
      </trkpt>
      <trkpt lat="47.03211" lon="2.2801">
        <ele>137</ele>
        <time>2018-04-17T09:20:13Z</time>
      </trkpt>
      <trkpt lat="47.03223" lon="2.28022">
        <ele>137</ele>
        <time>2018-04-17T09:20:16Z</time>
      </trkpt>
      <trkpt lat="47.03231" lon="2.28023">
        <ele>137</ele>
        <time>2018-04-17T09:20:18Z</time>
      </trkpt>
      <trkpt lat="47.03235" lon="2.28019">
        <ele>137</ele>
        <time>2018-04-17T09:20:19Z</time>
      </trkpt>
      <trkpt lat="47.03243" lon="2.28013">
        <ele>136</ele>
        <time>2018-04-17T09:20:21Z</time>
      </trkpt>
      <trkpt lat="47.03252" lon="2.28004">
        <ele>136</ele>
        <time>2018-04-17T09:20:24Z</time>
      </trkpt>
      <trkpt lat="47.03271" lon="2.27995">
        <ele>135</ele>
        <time>2018-04-17T09:20:31Z</time>
      </trkpt>
      <trkpt lat="47.03283" lon="2.27998">
        <ele>135</ele>
        <time>2018-04-17T09:20:34Z</time>
      </trkpt>
      <trkpt lat="47.03293" lon="2.28003">
        <ele>135</ele>
        <time>2018-04-17T09:20:36Z</time>
      </trkpt>
      <trkpt lat="47.03302" lon="2.28009">
        <ele>135</ele>
        <time>2018-04-17T09:20:38Z</time>
      </trkpt>
      <trkpt lat="47.03324" lon="2.28017">
        <ele>134</ele>
        <time>2018-04-17T09:20:43Z</time>
      </trkpt>
      <trkpt lat="47.03334" lon="2.28011">
        <ele>134</ele>
        <time>2018-04-17T09:20:47Z</time>
      </trkpt>
      <trkpt lat="47.0334" lon="2.27998">
        <ele>133</ele>
        <time>2018-04-17T09:20:51Z</time>
      </trkpt>
      <trkpt lat="47.03341" lon="2.27994">
        <ele>133</ele>
        <time>2018-04-17T09:20:52Z</time>
      </trkpt>
      <trkpt lat="47.03345" lon="2.27967">
        <ele>133</ele>
        <time>2018-04-17T09:20:57Z</time>
      </trkpt>
      <trkpt lat="47.03347" lon="2.27958">
        <ele>133</ele>
        <time>2018-04-17T09:21:00Z</time>
      </trkpt>
      <trkpt lat="47.03348" lon="2.27956">
        <ele>133</ele>
        <time>2018-04-17T09:21:01Z</time>
      </trkpt>
      <trkpt lat="47.03358" lon="2.2795">
        <ele>133</ele>
        <time>2018-04-17T09:21:05Z</time>
      </trkpt>
      <trkpt lat="47.03369" lon="2.27931">
        <ele>133</ele>
        <time>2018-04-17T09:21:09Z</time>
      </trkpt>
      <trkpt lat="47.03385" lon="2.27885">
        <ele>133</ele>
        <time>2018-04-17T09:21:16Z</time>
      </trkpt>
      <trkpt lat="47.03386" lon="2.2787">
        <ele>133</ele>
        <time>2018-04-17T09:21:18Z</time>
      </trkpt>
      <trkpt lat="47.03386" lon="2.27849">
        <ele>133</ele>
        <time>2018-04-17T09:21:21Z</time>
      </trkpt>
      <trkpt lat="47.03386" lon="2.2783">
        <ele>134</ele>
        <time>2018-04-17T09:21:26Z</time>
      </trkpt>
      <trkpt lat="47.03392" lon="2.27809">
        <ele>134</ele>
        <time>2018-04-17T09:21:32Z</time>
      </trkpt>
      <trkpt lat="47.03399" lon="2.2779">
        <ele>134</ele>
        <time>2018-04-17T09:21:38Z</time>
      </trkpt>
      <trkpt lat="47.03399" lon="2.27788">
        <ele>134</ele>
        <time>2018-04-17T09:21:42Z</time>
      </trkpt>
      <trkpt lat="47.03399" lon="2.27788">
        <ele>134</ele>
        <time>2018-04-17T09:21:58Z</time>
      </trkpt>
      <trkpt lat="47.03399" lon="2.27788">
        <ele>134</ele>
        <time>2018-04-17T09:22:12Z</time>
      </trkpt>
      <trkpt lat="47.03399" lon="2.27788">
        <ele>134</ele>
        <time>2018-04-17T09:22:15Z</time>
      </trkpt>
      <trkpt lat="47.03399" lon="2.27789">
        <ele>134</ele>
        <time>2018-04-17T09:22:28Z</time>
      </trkpt>
      <trkpt lat="47.03399" lon="2.27789">
        <ele>134</ele>
        <time>2018-04-17T09:22:44Z</time>
      </trkpt>
      <trkpt lat="47.03399" lon="2.27789">
        <ele>134</ele>
        <time>2018-04-17T09:22:50Z</time>
      </trkpt>
      <trkpt lat="47.03399" lon="2.27788">
        <ele>134</ele>
        <time>2018-04-17T09:23:01Z</time>
      </trkpt>
      <trkpt lat="47.03399" lon="2.27789">
        <ele>134</ele>
        <time>2018-04-17T09:23:13Z</time>
      </trkpt>
      <trkpt lat="47.03399" lon="2.27789">
        <ele>134</ele>
        <time>2018-04-17T09:23:28Z</time>
      </trkpt>
      <trkpt lat="47.034" lon="2.27788">
        <ele>134</ele>
        <time>2018-04-17T09:23:35Z</time>
      </trkpt>
      <trkpt lat="47.03402" lon="2.27785">
        <ele>134</ele>
        <time>2018-04-17T09:23:37Z</time>
      </trkpt>
      <trkpt lat="47.03403" lon="2.27781">
        <ele>134</ele>
        <time>2018-04-17T09:23:38Z</time>
      </trkpt>
      <trkpt lat="47.03403" lon="2.27763">
        <ele>134</ele>
        <time>2018-04-17T09:23:42Z</time>
      </trkpt>
      <trkpt lat="47.03401" lon="2.27754">
        <ele>134</ele>
        <time>2018-04-17T09:23:46Z</time>
      </trkpt>
      <trkpt lat="47.03399" lon="2.27741">
        <ele>134</ele>
        <time>2018-04-17T09:23:54Z</time>
      </trkpt>
      <trkpt lat="47.03398" lon="2.27741">
        <ele>134</ele>
        <time>2018-04-17T09:24:00Z</time>
      </trkpt>
      <trkpt lat="47.03398" lon="2.27741">
        <ele>134</ele>
        <time>2018-04-17T09:24:04Z</time>
      </trkpt>
      <trkpt lat="47.03398" lon="2.27741">
        <ele>134</ele>
        <time>2018-04-17T09:24:10Z</time>
      </trkpt>
      <trkpt lat="47.03399" lon="2.27741">
        <ele>134</ele>
        <time>2018-04-17T09:24:23Z</time>
      </trkpt>
      <trkpt lat="47.03398" lon="2.27741">
        <ele>134</ele>
        <time>2018-04-17T09:24:31Z</time>
      </trkpt>
      <trkpt lat="47.03399" lon="2.27739">
        <ele>134</ele>
        <time>2018-04-17T09:24:32Z</time>
      </trkpt>
      <trkpt lat="47.03403" lon="2.27728">
        <ele>134</ele>
        <time>2018-04-17T09:24:35Z</time>
      </trkpt>
      <trkpt lat="47.03404" lon="2.27723">
        <ele>134</ele>
        <time>2018-04-17T09:24:36Z</time>
      </trkpt>
      <trkpt lat="47.03409" lon="2.27705">
        <ele>134</ele>
        <time>2018-04-17T09:24:39Z</time>
      </trkpt>
      <trkpt lat="47.03411" lon="2.27691">
        <ele>133</ele>
        <time>2018-04-17T09:24:41Z</time>
      </trkpt>
      <trkpt lat="47.03413" lon="2.27685">
        <ele>133</ele>
        <time>2018-04-17T09:24:42Z</time>
      </trkpt>
      <trkpt lat="47.03418" lon="2.27671">
        <ele>133</ele>
        <time>2018-04-17T09:24:45Z</time>
      </trkpt>
      <trkpt lat="47.03416" lon="2.27662">
        <ele>133</ele>
        <time>2018-04-17T09:24:48Z</time>
      </trkpt>
      <trkpt lat="47.03414" lon="2.2766">
        <ele>133</ele>
        <time>2018-04-17T09:24:49Z</time>
      </trkpt>
      <trkpt lat="47.03396" lon="2.27643">
        <ele>134</ele>
        <time>2018-04-17T09:24:55Z</time>
      </trkpt>
      <trkpt lat="47.03376" lon="2.2763">
        <ele>135</ele>
        <time>2018-04-17T09:25:01Z</time>
      </trkpt>
      <trkpt lat="47.03359" lon="2.2762">
        <ele>135</ele>
        <time>2018-04-17T09:25:06Z</time>
      </trkpt>
      <trkpt lat="47.03342" lon="2.27611">
        <ele>135</ele>
        <time>2018-04-17T09:25:11Z</time>
      </trkpt>
      <trkpt lat="47.03334" lon="2.27607">
        <ele>136</ele>
        <time>2018-04-17T09:25:14Z</time>
      </trkpt>
      <trkpt lat="47.03326" lon="2.27603">
        <ele>136</ele>
        <time>2018-04-17T09:25:17Z</time>
      </trkpt>
      <trkpt lat="47.03318" lon="2.27593">
        <ele>137</ele>
        <time>2018-04-17T09:25:21Z</time>
      </trkpt>
      <trkpt lat="47.03316" lon="2.27593">
        <ele>137</ele>
        <time>2018-04-17T09:25:22Z</time>
      </trkpt>
      <trkpt lat="47.0331" lon="2.27591">
        <ele>137</ele>
        <time>2018-04-17T09:25:25Z</time>
      </trkpt>
      <trkpt lat="47.03309" lon="2.27589">
        <ele>137</ele>
        <time>2018-04-17T09:25:26Z</time>
      </trkpt>
      <trkpt lat="47.03299" lon="2.2758">
        <ele>138</ele>
        <time>2018-04-17T09:25:30Z</time>
      </trkpt>
      <trkpt lat="47.03279" lon="2.27562">
        <ele>138</ele>
        <time>2018-04-17T09:25:37Z</time>
      </trkpt>
      <trkpt lat="47.03259" lon="2.27544">
        <ele>138</ele>
        <time>2018-04-17T09:25:44Z</time>
      </trkpt>
      <trkpt lat="47.03248" lon="2.27534">
        <ele>139</ele>
        <time>2018-04-17T09:25:49Z</time>
      </trkpt>
      <trkpt lat="47.03242" lon="2.27527">
        <ele>139</ele>
        <time>2018-04-17T09:25:52Z</time>
      </trkpt>
      <trkpt lat="47.03227" lon="2.27513">
        <ele>139</ele>
        <time>2018-04-17T09:25:57Z</time>
      </trkpt>
      <trkpt lat="47.03202" lon="2.27493">
        <ele>139</ele>
        <time>2018-04-17T09:26:04Z</time>
      </trkpt>
      <trkpt lat="47.0318" lon="2.27478">
        <ele>139</ele>
        <time>2018-04-17T09:26:10Z</time>
      </trkpt>
      <trkpt lat="47.03157" lon="2.27455">
        <ele>139</ele>
        <time>2018-04-17T09:26:18Z</time>
      </trkpt>
      <trkpt lat="47.03147" lon="2.27446">
        <ele>139</ele>
        <time>2018-04-17T09:26:22Z</time>
      </trkpt>
      <trkpt lat="47.03126" lon="2.27435">
        <ele>139</ele>
        <time>2018-04-17T09:26:28Z</time>
      </trkpt>
      <trkpt lat="47.03114" lon="2.27429">
        <ele>139</ele>
        <time>2018-04-17T09:26:31Z</time>
      </trkpt>
      <trkpt lat="47.0311" lon="2.27426">
        <ele>139</ele>
        <time>2018-04-17T09:26:32Z</time>
      </trkpt>
      <trkpt lat="47.03103" lon="2.2742">
        <ele>140</ele>
        <time>2018-04-17T09:26:34Z</time>
      </trkpt>
      <trkpt lat="47.03085" lon="2.27397">
        <ele>141</ele>
        <time>2018-04-17T09:26:40Z</time>
      </trkpt>
      <trkpt lat="47.03065" lon="2.27374">
        <ele>143</ele>
        <time>2018-04-17T09:26:47Z</time>
      </trkpt>
      <trkpt lat="47.03053" lon="2.27358">
        <ele>143</ele>
        <time>2018-04-17T09:26:52Z</time>
      </trkpt>
      <trkpt lat="47.03048" lon="2.27351">
        <ele>144</ele>
        <time>2018-04-17T09:26:54Z</time>
      </trkpt>
      <trkpt lat="47.03038" lon="2.27342">
        <ele>144</ele>
        <time>2018-04-17T09:26:58Z</time>
      </trkpt>
      <trkpt lat="47.03036" lon="2.2734">
        <ele>144</ele>
        <time>2018-04-17T09:26:59Z</time>
      </trkpt>
      <trkpt lat="47.03024" lon="2.27328">
        <ele>145</ele>
        <time>2018-04-17T09:27:05Z</time>
      </trkpt>
      <trkpt lat="47.03013" lon="2.27311">
        <ele>145</ele>
        <time>2018-04-17T09:27:11Z</time>
      </trkpt>
      <trkpt lat="47.03006" lon="2.27297">
        <ele>145</ele>
        <time>2018-04-17T09:27:15Z</time>
      </trkpt>
      <trkpt lat="47.02996" lon="2.27279">
        <ele>146</ele>
        <time>2018-04-17T09:27:20Z</time>
      </trkpt>
      <trkpt lat="47.02987" lon="2.27263">
        <ele>147</ele>
        <time>2018-04-17T09:27:25Z</time>
      </trkpt>
      <trkpt lat="47.02983" lon="2.27256">
        <ele>147</ele>
        <time>2018-04-17T09:27:27Z</time>
      </trkpt>
      <trkpt lat="47.02972" lon="2.27244">
        <ele>147</ele>
        <time>2018-04-17T09:27:31Z</time>
      </trkpt>
      <trkpt lat="47.0296" lon="2.27238">
        <ele>146</ele>
        <time>2018-04-17T09:27:35Z</time>
      </trkpt>
      <trkpt lat="47.02948" lon="2.27233">
        <ele>146</ele>
        <time>2018-04-17T09:27:39Z</time>
      </trkpt>
      <trkpt lat="47.02946" lon="2.27232">
        <ele>146</ele>
        <time>2018-04-17T09:27:40Z</time>
      </trkpt>
      <trkpt lat="47.02941" lon="2.27229">
        <ele>146</ele>
        <time>2018-04-17T09:27:43Z</time>
      </trkpt>
      <trkpt lat="47.0294" lon="2.27229">
        <ele>146</ele>
        <time>2018-04-17T09:27:44Z</time>
      </trkpt>
      <trkpt lat="47.02932" lon="2.27225">
        <ele>146</ele>
        <time>2018-04-17T09:27:47Z</time>
      </trkpt>
      <trkpt lat="47.02929" lon="2.27223">
        <ele>146</ele>
        <time>2018-04-17T09:27:48Z</time>
      </trkpt>
      <trkpt lat="47.02906" lon="2.27201">
        <ele>145</ele>
        <time>2018-04-17T09:27:56Z</time>
      </trkpt>
      <trkpt lat="47.02883" lon="2.27179">
        <ele>145</ele>
        <time>2018-04-17T09:28:04Z</time>
      </trkpt>
      <trkpt lat="47.02858" lon="2.27153">
        <ele>144</ele>
        <time>2018-04-17T09:28:12Z</time>
      </trkpt>
      <trkpt lat="47.02844" lon="2.27133">
        <ele>144</ele>
        <time>2018-04-17T09:28:17Z</time>
      </trkpt>
      <trkpt lat="47.0284" lon="2.27122">
        <ele>145</ele>
        <time>2018-04-17T09:28:19Z</time>
      </trkpt>
      <trkpt lat="47.02834" lon="2.271">
        <ele>145</ele>
        <time>2018-04-17T09:28:23Z</time>
      </trkpt>
      <trkpt lat="47.02831" lon="2.27084">
        <ele>145</ele>
        <time>2018-04-17T09:28:26Z</time>
      </trkpt>
      <trkpt lat="47.02821" lon="2.27045">
        <ele>146</ele>
        <time>2018-04-17T09:28:34Z</time>
      </trkpt>
      <trkpt lat="47.02807" lon="2.27019">
        <ele>146</ele>
        <time>2018-04-17T09:28:41Z</time>
      </trkpt>
      <trkpt lat="47.02803" lon="2.27012">
        <ele>146</ele>
        <time>2018-04-17T09:28:44Z</time>
      </trkpt>
      <trkpt lat="47.02803" lon="2.2701">
        <ele>146</ele>
        <time>2018-04-17T09:28:45Z</time>
      </trkpt>
      <trkpt lat="47.02802" lon="2.27004">
        <ele>146</ele>
        <time>2018-04-17T09:28:49Z</time>
      </trkpt>
      <trkpt lat="47.02802" lon="2.26999">
        <ele>147</ele>
        <time>2018-04-17T09:28:52Z</time>
      </trkpt>
      <trkpt lat="47.02801" lon="2.26989">
        <ele>147</ele>
        <time>2018-04-17T09:28:57Z</time>
      </trkpt>
      <trkpt lat="47.02797" lon="2.26967">
        <ele>147</ele>
        <time>2018-04-17T09:29:02Z</time>
      </trkpt>
      <trkpt lat="47.02791" lon="2.26939">
        <ele>148</ele>
        <time>2018-04-17T09:29:07Z</time>
      </trkpt>
      <trkpt lat="47.02787" lon="2.26928">
        <ele>148</ele>
        <time>2018-04-17T09:29:09Z</time>
      </trkpt>
      <trkpt lat="47.02774" lon="2.26904">
        <ele>148</ele>
        <time>2018-04-17T09:29:14Z</time>
      </trkpt>
      <trkpt lat="47.02757" lon="2.26885">
        <ele>148</ele>
        <time>2018-04-17T09:29:20Z</time>
      </trkpt>
      <trkpt lat="47.02744" lon="2.26876">
        <ele>147</ele>
        <time>2018-04-17T09:29:24Z</time>
      </trkpt>
      <trkpt lat="47.02732" lon="2.2686">
        <ele>147</ele>
        <time>2018-04-17T09:29:29Z</time>
      </trkpt>
      <trkpt lat="47.02723" lon="2.26838">
        <ele>147</ele>
        <time>2018-04-17T09:29:34Z</time>
      </trkpt>
      <trkpt lat="47.02718" lon="2.26813">
        <ele>148</ele>
        <time>2018-04-17T09:29:40Z</time>
      </trkpt>
      <trkpt lat="47.02713" lon="2.26786">
        <ele>148</ele>
        <time>2018-04-17T09:29:45Z</time>
      </trkpt>
      <trkpt lat="47.02712" lon="2.26767">
        <ele>148</ele>
        <time>2018-04-17T09:29:48Z</time>
      </trkpt>
      <trkpt lat="47.0271" lon="2.26743">
        <ele>148</ele>
        <time>2018-04-17T09:29:52Z</time>
      </trkpt>
      <trkpt lat="47.02708" lon="2.267">
        <ele>147</ele>
        <time>2018-04-17T09:29:59Z</time>
      </trkpt>
      <trkpt lat="47.02708" lon="2.26676">
        <ele>147</ele>
        <time>2018-04-17T09:30:03Z</time>
      </trkpt>
      <trkpt lat="47.02705" lon="2.2666">
        <ele>146</ele>
        <time>2018-04-17T09:30:06Z</time>
      </trkpt>
      <trkpt lat="47.02698" lon="2.26627">
        <ele>146</ele>
        <time>2018-04-17T09:30:13Z</time>
      </trkpt>
      <trkpt lat="47.02694" lon="2.26591">
        <ele>145</ele>
        <time>2018-04-17T09:30:20Z</time>
      </trkpt>
      <trkpt lat="47.02696" lon="2.26545">
        <ele>144</ele>
        <time>2018-04-17T09:30:28Z</time>
      </trkpt>
      <trkpt lat="47.02697" lon="2.26497">
        <ele>143</ele>
        <time>2018-04-17T09:30:35Z</time>
      </trkpt>
      <trkpt lat="47.02699" lon="2.26468">
        <ele>143</ele>
        <time>2018-04-17T09:30:39Z</time>
      </trkpt>
      <trkpt lat="47.02702" lon="2.26453">
        <ele>144</ele>
        <time>2018-04-17T09:30:41Z</time>
      </trkpt>
      <trkpt lat="47.02704" lon="2.26445">
        <ele>144</ele>
        <time>2018-04-17T09:30:42Z</time>
      </trkpt>
      <trkpt lat="47.02709" lon="2.26425">
        <ele>144</ele>
        <time>2018-04-17T09:30:45Z</time>
      </trkpt>
      <trkpt lat="47.02709" lon="2.26413">
        <ele>144</ele>
        <time>2018-04-17T09:30:47Z</time>
      </trkpt>
      <trkpt lat="47.02707" lon="2.264">
        <ele>144</ele>
        <time>2018-04-17T09:30:49Z</time>
      </trkpt>
      <trkpt lat="47.02707" lon="2.26393">
        <ele>144</ele>
        <time>2018-04-17T09:30:50Z</time>
      </trkpt>
      <trkpt lat="47.02707" lon="2.26379">
        <ele>144</ele>
        <time>2018-04-17T09:30:52Z</time>
      </trkpt>
      <trkpt lat="47.02706" lon="2.26358">
        <ele>145</ele>
        <time>2018-04-17T09:30:55Z</time>
      </trkpt>
      <trkpt lat="47.02706" lon="2.26344">
        <ele>145</ele>
        <time>2018-04-17T09:30:57Z</time>
      </trkpt>
      <trkpt lat="47.02706" lon="2.26337">
        <ele>145</ele>
        <time>2018-04-17T09:30:58Z</time>
      </trkpt>
      <trkpt lat="47.02706" lon="2.26324">
        <ele>144</ele>
        <time>2018-04-17T09:31:00Z</time>
      </trkpt>
      <trkpt lat="47.02711" lon="2.26307">
        <ele>144</ele>
        <time>2018-04-17T09:31:03Z</time>
      </trkpt>
      <trkpt lat="47.02724" lon="2.26265">
        <ele>144</ele>
        <time>2018-04-17T09:31:11Z</time>
      </trkpt>
      <trkpt lat="47.02732" lon="2.2624">
        <ele>142</ele>
        <time>2018-04-17T09:31:16Z</time>
      </trkpt>
      <trkpt lat="47.02735" lon="2.26229">
        <ele>142</ele>
        <time>2018-04-17T09:31:18Z</time>
      </trkpt>
      <trkpt lat="47.02741" lon="2.26209">
        <ele>141</ele>
        <time>2018-04-17T09:31:21Z</time>
      </trkpt>
      <trkpt lat="47.02745" lon="2.26195">
        <ele>141</ele>
        <time>2018-04-17T09:31:23Z</time>
      </trkpt>
      <trkpt lat="47.02747" lon="2.26188">
        <ele>141</ele>
        <time>2018-04-17T09:31:24Z</time>
      </trkpt>
      <trkpt lat="47.02754" lon="2.26159">
        <ele>140</ele>
        <time>2018-04-17T09:31:28Z</time>
      </trkpt>
      <trkpt lat="47.02755" lon="2.26151">
        <ele>139</ele>
        <time>2018-04-17T09:31:29Z</time>
      </trkpt>
      <trkpt lat="47.02757" lon="2.26135">
        <ele>139</ele>
        <time>2018-04-17T09:31:31Z</time>
      </trkpt>
      <trkpt lat="47.02761" lon="2.26089">
        <ele>136</ele>
        <time>2018-04-17T09:31:37Z</time>
      </trkpt>
      <trkpt lat="47.0276" lon="2.26083">
        <ele>135</ele>
        <time>2018-04-17T09:31:38Z</time>
      </trkpt>
      <trkpt lat="47.02757" lon="2.26066">
        <ele>135</ele>
        <time>2018-04-17T09:31:42Z</time>
      </trkpt>
      <trkpt lat="47.02752" lon="2.26052">
        <ele>135</ele>
        <time>2018-04-17T09:31:48Z</time>
      </trkpt>
      <trkpt lat="47.02751" lon="2.26051">
        <ele>135</ele>
        <time>2018-04-17T09:31:54Z</time>
      </trkpt>
      <trkpt lat="47.02751" lon="2.26051">
        <ele>135</ele>
        <time>2018-04-17T09:32:11Z</time>
      </trkpt>
      <trkpt lat="47.02751" lon="2.26051">
        <ele>135</ele>
        <time>2018-04-17T09:32:29Z</time>
      </trkpt>
      <trkpt lat="47.02751" lon="2.26051">
        <ele>135</ele>
        <time>2018-04-17T09:32:42Z</time>
      </trkpt>
      <trkpt lat="47.02752" lon="2.26051">
        <ele>135</ele>
        <time>2018-04-17T09:32:49Z</time>
      </trkpt>
      <trkpt lat="47.02753" lon="2.26054">
        <ele>135</ele>
        <time>2018-04-17T09:32:53Z</time>
      </trkpt>
      <trkpt lat="47.02754" lon="2.26058">
        <ele>135</ele>
        <time>2018-04-17T09:32:55Z</time>
      </trkpt>
      <trkpt lat="47.02757" lon="2.26066">
        <ele>135</ele>
        <time>2018-04-17T09:32:59Z</time>
      </trkpt>
      <trkpt lat="47.02758" lon="2.2607">
        <ele>135</ele>
        <time>2018-04-17T09:33:01Z</time>
      </trkpt>
      <trkpt lat="47.02759" lon="2.26072">
        <ele>135</ele>
        <time>2018-04-17T09:33:03Z</time>
      </trkpt>
      <trkpt lat="47.02761" lon="2.26072">
        <ele>135</ele>
        <time>2018-04-17T09:33:06Z</time>
      </trkpt>
      <trkpt lat="47.02762" lon="2.2607">
        <ele>135</ele>
        <time>2018-04-17T09:33:18Z</time>
      </trkpt>
      <trkpt lat="47.02772" lon="2.26057">
        <ele>135</ele>
        <time>2018-04-17T09:33:23Z</time>
      </trkpt>
      <trkpt lat="47.02783" lon="2.2604">
        <ele>135</ele>
        <time>2018-04-17T09:33:27Z</time>
      </trkpt>
      <trkpt lat="47.02792" lon="2.26026">
        <ele>135</ele>
        <time>2018-04-17T09:33:30Z</time>
      </trkpt>
      <trkpt lat="47.02803" lon="2.26007">
        <ele>135</ele>
        <time>2018-04-17T09:33:34Z</time>
      </trkpt>
      <trkpt lat="47.02823" lon="2.25968">
        <ele>133</ele>
        <time>2018-04-17T09:33:42Z</time>
      </trkpt>
      <trkpt lat="47.02845" lon="2.25927">
        <ele>134</ele>
        <time>2018-04-17T09:33:50Z</time>
      </trkpt>
      <trkpt lat="47.0286" lon="2.25892">
        <ele>133</ele>
        <time>2018-04-17T09:33:56Z</time>
      </trkpt>
      <trkpt lat="47.02862" lon="2.25886">
        <ele>133</ele>
        <time>2018-04-17T09:33:57Z</time>
      </trkpt>
      <trkpt lat="47.02882" lon="2.25846">
        <ele>133</ele>
        <time>2018-04-17T09:34:05Z</time>
      </trkpt>
      <trkpt lat="47.02903" lon="2.2582">
        <ele>133</ele>
        <time>2018-04-17T09:34:12Z</time>
      </trkpt>
      <trkpt lat="47.02924" lon="2.25801">
        <ele>135</ele>
        <time>2018-04-17T09:34:19Z</time>
      </trkpt>
      <trkpt lat="47.02947" lon="2.25788">
        <ele>135</ele>
        <time>2018-04-17T09:34:27Z</time>
      </trkpt>
      <trkpt lat="47.02964" lon="2.25786">
        <ele>135</ele>
        <time>2018-04-17T09:34:33Z</time>
      </trkpt>
      <trkpt lat="47.02986" lon="2.25786">
        <ele>136</ele>
        <time>2018-04-17T09:34:40Z</time>
      </trkpt>
      <trkpt lat="47.03009" lon="2.25784">
        <ele>138</ele>
        <time>2018-04-17T09:34:47Z</time>
      </trkpt>
      <trkpt lat="47.03032" lon="2.25778">
        <ele>138</ele>
        <time>2018-04-17T09:34:55Z</time>
      </trkpt>
      <trkpt lat="47.03048" lon="2.25773">
        <ele>138</ele>
        <time>2018-04-17T09:35:01Z</time>
      </trkpt>
      <trkpt lat="47.03054" lon="2.25771">
        <ele>138</ele>
        <time>2018-04-17T09:35:03Z</time>
      </trkpt>
      <trkpt lat="47.03074" lon="2.25759">
        <ele>138</ele>
        <time>2018-04-17T09:35:10Z</time>
      </trkpt>
      <trkpt lat="47.03079" lon="2.25756">
        <ele>138</ele>
        <time>2018-04-17T09:35:12Z</time>
      </trkpt>
      <trkpt lat="47.03083" lon="2.2575">
        <ele>138</ele>
        <time>2018-04-17T09:35:14Z</time>
      </trkpt>
      <trkpt lat="47.03092" lon="2.25723">
        <ele>137</ele>
        <time>2018-04-17T09:35:20Z</time>
      </trkpt>
      <trkpt lat="47.03098" lon="2.25701">
        <ele>136</ele>
        <time>2018-04-17T09:35:25Z</time>
      </trkpt>
      <trkpt lat="47.03104" lon="2.25682">
        <ele>136</ele>
        <time>2018-04-17T09:35:29Z</time>
      </trkpt>
      <trkpt lat="47.03108" lon="2.25671">
        <ele>136</ele>
        <time>2018-04-17T09:35:31Z</time>
      </trkpt>
      <trkpt lat="47.03115" lon="2.25644">
        <ele>134</ele>
        <time>2018-04-17T09:35:36Z</time>
      </trkpt>
      <trkpt lat="47.03115" lon="2.25638">
        <ele>134</ele>
        <time>2018-04-17T09:35:37Z</time>
      </trkpt>
      <trkpt lat="47.03116" lon="2.25606">
        <ele>134</ele>
        <time>2018-04-17T09:35:43Z</time>
      </trkpt>
      <trkpt lat="47.03115" lon="2.25573">
        <ele>135</ele>
        <time>2018-04-17T09:35:49Z</time>
      </trkpt>
      <trkpt lat="47.03123" lon="2.25535">
        <ele>134</ele>
        <time>2018-04-17T09:35:56Z</time>
      </trkpt>
      <trkpt lat="47.03137" lon="2.25504">
        <ele>134</ele>
        <time>2018-04-17T09:36:03Z</time>
      </trkpt>
      <trkpt lat="47.03154" lon="2.25478">
        <ele>135</ele>
        <time>2018-04-17T09:36:10Z</time>
      </trkpt>
      <trkpt lat="47.03169" lon="2.25462">
        <ele>133</ele>
        <time>2018-04-17T09:36:16Z</time>
      </trkpt>
      <trkpt lat="47.03186" lon="2.25455">
        <ele>133</ele>
        <time>2018-04-17T09:36:23Z</time>
      </trkpt>
      <trkpt lat="47.03189" lon="2.25454">
        <ele>133</ele>
        <time>2018-04-17T09:36:26Z</time>
      </trkpt>
      <trkpt lat="47.0319" lon="2.25453">
        <ele>133</ele>
        <time>2018-04-17T09:36:28Z</time>
      </trkpt>
      <trkpt lat="47.03191" lon="2.25453">
        <ele>133</ele>
        <time>2018-04-17T09:36:40Z</time>
      </trkpt>
      <trkpt lat="47.03191" lon="2.25453">
        <ele>133</ele>
        <time>2018-04-17T09:36:54Z</time>
      </trkpt>
      <trkpt lat="47.03192" lon="2.25451">
        <ele>133</ele>
        <time>2018-04-17T09:37:07Z</time>
      </trkpt>
      <trkpt lat="47.03195" lon="2.25438">
        <ele>133</ele>
        <time>2018-04-17T09:37:13Z</time>
      </trkpt>
      <trkpt lat="47.03194" lon="2.25417">
        <ele>134</ele>
        <time>2018-04-17T09:37:19Z</time>
      </trkpt>
      <trkpt lat="47.03191" lon="2.254">
        <ele>135</ele>
        <time>2018-04-17T09:37:24Z</time>
      </trkpt>
      <trkpt lat="47.03189" lon="2.25396">
        <ele>135</ele>
        <time>2018-04-17T09:37:25Z</time>
      </trkpt>
      <trkpt lat="47.03185" lon="2.25375">
        <ele>135</ele>
        <time>2018-04-17T09:37:30Z</time>
      </trkpt>
      <trkpt lat="47.03185" lon="2.25371">
        <ele>135</ele>
        <time>2018-04-17T09:37:31Z</time>
      </trkpt>
      <trkpt lat="47.03182" lon="2.25337">
        <ele>136</ele>
        <time>2018-04-17T09:37:39Z</time>
      </trkpt>
      <trkpt lat="47.03182" lon="2.25318">
        <ele>136</ele>
        <time>2018-04-17T09:37:44Z</time>
      </trkpt>
      <trkpt lat="47.03174" lon="2.25289">
        <ele>136</ele>
        <time>2018-04-17T09:37:50Z</time>
      </trkpt>
      <trkpt lat="47.03168" lon="2.25266">
        <ele>136</ele>
        <time>2018-04-17T09:37:55Z</time>
      </trkpt>
      <trkpt lat="47.03163" lon="2.25239">
        <ele>137</ele>
        <time>2018-04-17T09:38:01Z</time>
      </trkpt>
      <trkpt lat="47.03158" lon="2.25223">
        <ele>139</ele>
        <time>2018-04-17T09:38:05Z</time>
      </trkpt>
      <trkpt lat="47.03154" lon="2.25216">
        <ele>139</ele>
        <time>2018-04-17T09:38:07Z</time>
      </trkpt>
      <trkpt lat="47.03149" lon="2.25204">
        <ele>140</ele>
        <time>2018-04-17T09:38:11Z</time>
      </trkpt>
      <trkpt lat="47.03147" lon="2.252">
        <ele>140</ele>
        <time>2018-04-17T09:38:12Z</time>
      </trkpt>
      <trkpt lat="47.03147" lon="2.25181">
        <ele>140</ele>
        <time>2018-04-17T09:38:17Z</time>
      </trkpt>
      <trkpt lat="47.03147" lon="2.25167">
        <ele>140</ele>
        <time>2018-04-17T09:38:22Z</time>
      </trkpt>
      <trkpt lat="47.03141" lon="2.25138">
        <ele>142</ele>
        <time>2018-04-17T09:38:28Z</time>
      </trkpt>
      <trkpt lat="47.03142" lon="2.25112">
        <ele>143</ele>
        <time>2018-04-17T09:38:34Z</time>
      </trkpt>
      <trkpt lat="47.0314" lon="2.25091">
        <ele>143</ele>
        <time>2018-04-17T09:38:39Z</time>
      </trkpt>
      <trkpt lat="47.03137" lon="2.25064">
        <ele>145</ele>
        <time>2018-04-17T09:38:45Z</time>
      </trkpt>
      <trkpt lat="47.03134" lon="2.25035">
        <ele>145</ele>
        <time>2018-04-17T09:38:51Z</time>
      </trkpt>
      <trkpt lat="47.03131" lon="2.25021">
        <ele>145</ele>
        <time>2018-04-17T09:38:55Z</time>
      </trkpt>
      <trkpt lat="47.03127" lon="2.25002">
        <ele>145</ele>
        <time>2018-04-17T09:39:00Z</time>
      </trkpt>
      <trkpt lat="47.03121" lon="2.24974">
        <ele>145</ele>
        <time>2018-04-17T09:39:05Z</time>
      </trkpt>
      <trkpt lat="47.03117" lon="2.24943">
        <ele>144</ele>
        <time>2018-04-17T09:39:12Z</time>
      </trkpt>
      <trkpt lat="47.03119" lon="2.24917">
        <ele>144</ele>
        <time>2018-04-17T09:39:18Z</time>
      </trkpt>
      <trkpt lat="47.03118" lon="2.24893">
        <ele>142</ele>
        <time>2018-04-17T09:39:24Z</time>
      </trkpt>
      <trkpt lat="47.03118" lon="2.24888">
        <ele>142</ele>
        <time>2018-04-17T09:39:25Z</time>
      </trkpt>
      <trkpt lat="47.0312" lon="2.24867">
        <ele>142</ele>
        <time>2018-04-17T09:39:30Z</time>
      </trkpt>
      <trkpt lat="47.03123" lon="2.24845">
        <ele>141</ele>
        <time>2018-04-17T09:39:36Z</time>
      </trkpt>
      <trkpt lat="47.03123" lon="2.24842">
        <ele>141</ele>
        <time>2018-04-17T09:39:37Z</time>
      </trkpt>
      <trkpt lat="47.03122" lon="2.24839">
        <ele>141</ele>
        <time>2018-04-17T09:39:38Z</time>
      </trkpt>
      <trkpt lat="47.03122" lon="2.24834">
        <ele>141</ele>
        <time>2018-04-17T09:39:40Z</time>
      </trkpt>
      <trkpt lat="47.03128" lon="2.24811">
        <ele>139</ele>
        <time>2018-04-17T09:39:47Z</time>
      </trkpt>
      <trkpt lat="47.03131" lon="2.24796">
        <ele>139</ele>
        <time>2018-04-17T09:39:52Z</time>
      </trkpt>
      <trkpt lat="47.03133" lon="2.24777">
        <ele>138</ele>
        <time>2018-04-17T09:39:58Z</time>
      </trkpt>
      <trkpt lat="47.03134" lon="2.24754">
        <ele>138</ele>
        <time>2018-04-17T09:40:05Z</time>
      </trkpt>
      <trkpt lat="47.03134" lon="2.24748">
        <ele>138</ele>
        <time>2018-04-17T09:40:07Z</time>
      </trkpt>
      <trkpt lat="47.03132" lon="2.24729">
        <ele>138</ele>
        <time>2018-04-17T09:40:12Z</time>
      </trkpt>
      <trkpt lat="47.03126" lon="2.24698">
        <ele>138</ele>
        <time>2018-04-17T09:40:21Z</time>
      </trkpt>
      <trkpt lat="47.03126" lon="2.24694">
        <ele>138</ele>
        <time>2018-04-17T09:40:22Z</time>
      </trkpt>
      <trkpt lat="47.03118" lon="2.24659">
        <ele>140</ele>
        <time>2018-04-17T09:40:31Z</time>
      </trkpt>
      <trkpt lat="47.03117" lon="2.24651">
        <ele>140</ele>
        <time>2018-04-17T09:40:33Z</time>
      </trkpt>
      <trkpt lat="47.03112" lon="2.24626">
        <ele>140</ele>
        <time>2018-04-17T09:40:40Z</time>
      </trkpt>
      <trkpt lat="47.03112" lon="2.24623">
        <ele>140</ele>
        <time>2018-04-17T09:40:41Z</time>
      </trkpt>
      <trkpt lat="47.03111" lon="2.24606">
        <ele>140</ele>
        <time>2018-04-17T09:40:47Z</time>
      </trkpt>
      <trkpt lat="47.03108" lon="2.24589">
        <ele>140</ele>
        <time>2018-04-17T09:40:52Z</time>
      </trkpt>
      <trkpt lat="47.03103" lon="2.24559">
        <ele>141</ele>
        <time>2018-04-17T09:41:00Z</time>
      </trkpt>
      <trkpt lat="47.03102" lon="2.24551">
        <ele>141</ele>
        <time>2018-04-17T09:41:02Z</time>
      </trkpt>
      <trkpt lat="47.031" lon="2.24526">
        <ele>141</ele>
        <time>2018-04-17T09:41:09Z</time>
      </trkpt>
      <trkpt lat="47.03099" lon="2.2451">
        <ele>142</ele>
        <time>2018-04-17T09:41:13Z</time>
      </trkpt>
      <trkpt lat="47.03099" lon="2.24499">
        <ele>142</ele>
        <time>2018-04-17T09:41:16Z</time>
      </trkpt>
      <trkpt lat="47.03099" lon="2.24472">
        <ele>142</ele>
        <time>2018-04-17T09:41:23Z</time>
      </trkpt>
      <trkpt lat="47.03099" lon="2.24468">
        <ele>142</ele>
        <time>2018-04-17T09:41:24Z</time>
      </trkpt>
      <trkpt lat="47.03097" lon="2.24442">
        <ele>143</ele>
        <time>2018-04-17T09:41:31Z</time>
      </trkpt>
      <trkpt lat="47.03095" lon="2.24422">
        <ele>144</ele>
        <time>2018-04-17T09:41:36Z</time>
      </trkpt>
      <trkpt lat="47.03093" lon="2.24414">
        <ele>144</ele>
        <time>2018-04-17T09:41:38Z</time>
      </trkpt>
      <trkpt lat="47.03087" lon="2.24392">
        <ele>144</ele>
        <time>2018-04-17T09:41:44Z</time>
      </trkpt>
      <trkpt lat="47.03083" lon="2.24369">
        <ele>145</ele>
        <time>2018-04-17T09:41:50Z</time>
      </trkpt>
      <trkpt lat="47.03081" lon="2.24361">
        <ele>145</ele>
        <time>2018-04-17T09:41:52Z</time>
      </trkpt>
      <trkpt lat="47.03074" lon="2.24331">
        <ele>145</ele>
        <time>2018-04-17T09:42:00Z</time>
      </trkpt>
      <trkpt lat="47.0307" lon="2.24308">
        <ele>146</ele>
        <time>2018-04-17T09:42:06Z</time>
      </trkpt>
      <trkpt lat="47.03069" lon="2.243">
        <ele>146</ele>
        <time>2018-04-17T09:42:08Z</time>
      </trkpt>
      <trkpt lat="47.03066" lon="2.24272">
        <ele>146</ele>
        <time>2018-04-17T09:42:15Z</time>
      </trkpt>
      <trkpt lat="47.03064" lon="2.24242">
        <ele>147</ele>
        <time>2018-04-17T09:42:22Z</time>
      </trkpt>
      <trkpt lat="47.03061" lon="2.24216">
        <ele>148</ele>
        <time>2018-04-17T09:42:28Z</time>
      </trkpt>
      <trkpt lat="47.0306" lon="2.24211">
        <ele>148</ele>
        <time>2018-04-17T09:42:29Z</time>
      </trkpt>
      <trkpt lat="47.03055" lon="2.24176">
        <ele>148</ele>
        <time>2018-04-17T09:42:37Z</time>
      </trkpt>
      <trkpt lat="47.0305" lon="2.2415">
        <ele>149</ele>
        <time>2018-04-17T09:42:43Z</time>
      </trkpt>
      <trkpt lat="47.03047" lon="2.24139">
        <ele>149</ele>
        <time>2018-04-17T09:42:46Z</time>
      </trkpt>
      <trkpt lat="47.03045" lon="2.24125">
        <ele>149</ele>
        <time>2018-04-17T09:42:50Z</time>
      </trkpt>
      <trkpt lat="47.03041" lon="2.24112">
        <ele>150</ele>
        <time>2018-04-17T09:42:55Z</time>
      </trkpt>
      <trkpt lat="47.03041" lon="2.24109">
        <ele>150</ele>
        <time>2018-04-17T09:42:56Z</time>
      </trkpt>
      <trkpt lat="47.03042" lon="2.24105">
        <ele>150</ele>
        <time>2018-04-17T09:42:57Z</time>
      </trkpt>
      <trkpt lat="47.03045" lon="2.2409">
        <ele>150</ele>
        <time>2018-04-17T09:43:01Z</time>
      </trkpt>
      <trkpt lat="47.03044" lon="2.24078">
        <ele>150</ele>
        <time>2018-04-17T09:43:05Z</time>
      </trkpt>
      <trkpt lat="47.03044" lon="2.24076">
        <ele>150</ele>
        <time>2018-04-17T09:43:06Z</time>
      </trkpt>
      <trkpt lat="47.03042" lon="2.24073">
        <ele>150</ele>
        <time>2018-04-17T09:43:11Z</time>
      </trkpt>
      <trkpt lat="47.03042" lon="2.24073">
        <ele>150</ele>
        <time>2018-04-17T09:43:24Z</time>
      </trkpt>
      <trkpt lat="47.03042" lon="2.24073">
        <ele>150</ele>
        <time>2018-04-17T09:43:38Z</time>
      </trkpt>
      <trkpt lat="47.03042" lon="2.24072">
        <ele>150</ele>
        <time>2018-04-17T09:43:45Z</time>
      </trkpt>
      <trkpt lat="47.03042" lon="2.24067">
        <ele>150</ele>
        <time>2018-04-17T09:43:48Z</time>
      </trkpt>
      <trkpt lat="47.0304" lon="2.24047">
        <ele>150</ele>
        <time>2018-04-17T09:43:55Z</time>
      </trkpt>
      <trkpt lat="47.03038" lon="2.24034">
        <ele>151</ele>
        <time>2018-04-17T09:43:59Z</time>
      </trkpt>
      <trkpt lat="47.03035" lon="2.24027">
        <ele>151</ele>
        <time>2018-04-17T09:44:01Z</time>
      </trkpt>
      <trkpt lat="47.03032" lon="2.24006">
        <ele>151</ele>
        <time>2018-04-17T09:44:06Z</time>
      </trkpt>
      <trkpt lat="47.03031" lon="2.23983">
        <ele>152</ele>
        <time>2018-04-17T09:44:12Z</time>
      </trkpt>
      <trkpt lat="47.03034" lon="2.23955">
        <ele>152</ele>
        <time>2018-04-17T09:44:19Z</time>
      </trkpt>
      <trkpt lat="47.03033" lon="2.23932">
        <ele>152</ele>
        <time>2018-04-17T09:44:24Z</time>
      </trkpt>
      <trkpt lat="47.03034" lon="2.2391">
        <ele>153</ele>
        <time>2018-04-17T09:44:30Z</time>
      </trkpt>
      <trkpt lat="47.03035" lon="2.2389">
        <ele>153</ele>
        <time>2018-04-17T09:44:36Z</time>
      </trkpt>
      <trkpt lat="47.03035" lon="2.23879">
        <ele>153</ele>
        <time>2018-04-17T09:44:39Z</time>
      </trkpt>
      <trkpt lat="47.03033" lon="2.23862">
        <ele>153</ele>
        <time>2018-04-17T09:44:43Z</time>
      </trkpt>
      <trkpt lat="47.03029" lon="2.23837">
        <ele>153</ele>
        <time>2018-04-17T09:44:49Z</time>
      </trkpt>
      <trkpt lat="47.03022" lon="2.23803">
        <ele>154</ele>
        <time>2018-04-17T09:44:55Z</time>
      </trkpt>
      <trkpt lat="47.03017" lon="2.2378">
        <ele>155</ele>
        <time>2018-04-17T09:45:01Z</time>
      </trkpt>
      <trkpt lat="47.03017" lon="2.2378">
        <ele>155</ele>
        <time>2018-04-17T09:45:02Z</time>
      </trkpt>
      <trkpt lat="47.03017" lon="2.23778">
        <ele>155</ele>
        <time>2018-04-17T09:45:07Z</time>
      </trkpt>
      <trkpt lat="47.03017" lon="2.23778">
        <ele>155</ele>
        <time>2018-04-17T09:45:25Z</time>
      </trkpt>
      <trkpt lat="47.03017" lon="2.23778">
        <ele>155</ele>
        <time>2018-04-17T09:45:38Z</time>
      </trkpt>
      <trkpt lat="47.03017" lon="2.23778">
        <ele>155</ele>
        <time>2018-04-17T09:45:54Z</time>
      </trkpt>
      <trkpt lat="47.03017" lon="2.23778">
        <ele>155</ele>
        <time>2018-04-17T09:46:02Z</time>
      </trkpt>
      <trkpt lat="47.03017" lon="2.23778">
        <ele>155</ele>
        <time>2018-04-17T09:46:14Z</time>
      </trkpt>
      <trkpt lat="47.03017" lon="2.23778">
        <ele>155</ele>
        <time>2018-04-17T09:46:23Z</time>
      </trkpt>
      <trkpt lat="47.03017" lon="2.23778">
        <ele>155</ele>
        <time>2018-04-17T09:46:35Z</time>
      </trkpt>
      <trkpt lat="47.03017" lon="2.23778">
        <ele>155</ele>
        <time>2018-04-17T09:46:48Z</time>
      </trkpt>
      <trkpt lat="47.03017" lon="2.23778">
        <ele>155</ele>
        <time>2018-04-17T09:47:05Z</time>
      </trkpt>
      <trkpt lat="47.03017" lon="2.23778">
        <ele>155</ele>
        <time>2018-04-17T09:47:21Z</time>
      </trkpt>
      <trkpt lat="47.03017" lon="2.23778">
        <ele>155</ele>
        <time>2018-04-17T09:47:38Z</time>
      </trkpt>
      <trkpt lat="47.03017" lon="2.23777">
        <ele>155</ele>
        <time>2018-04-17T09:47:51Z</time>
      </trkpt>
      <trkpt lat="47.03017" lon="2.23777">
        <ele>155</ele>
        <time>2018-04-17T09:48:03Z</time>
      </trkpt>
      <trkpt lat="47.03017" lon="2.23777">
        <ele>155</ele>
        <time>2018-04-17T09:48:17Z</time>
      </trkpt>
      <trkpt lat="47.03017" lon="2.23777">
        <ele>155</ele>
        <time>2018-04-17T09:48:29Z</time>
      </trkpt>
      <trkpt lat="47.03017" lon="2.23777">
        <ele>155</ele>
        <time>2018-04-17T09:48:39Z</time>
      </trkpt>
      <trkpt lat="47.03017" lon="2.23777">
        <ele>155</ele>
        <time>2018-04-17T09:48:52Z</time>
      </trkpt>
      <trkpt lat="47.03017" lon="2.23777">
        <ele>155</ele>
        <time>2018-04-17T09:49:07Z</time>
      </trkpt>
      <trkpt lat="47.03017" lon="2.23777">
        <ele>155</ele>
        <time>2018-04-17T09:49:24Z</time>
      </trkpt>
      <trkpt lat="47.03017" lon="2.23777">
        <ele>155</ele>
        <time>2018-04-17T09:49:44Z</time>
      </trkpt>
      <trkpt lat="47.03017" lon="2.23777">
        <ele>155</ele>
        <time>2018-04-17T09:49:59Z</time>
      </trkpt>
      <trkpt lat="47.03017" lon="2.2377">
        <ele>155</ele>
        <time>2018-04-17T09:50:07Z</time>
      </trkpt>
      <trkpt lat="47.03013" lon="2.23753">
        <ele>155</ele>
        <time>2018-04-17T09:50:12Z</time>
      </trkpt>
      <trkpt lat="47.03012" lon="2.23749">
        <ele>156</ele>
        <time>2018-04-17T09:50:13Z</time>
      </trkpt>
      <trkpt lat="47.03009" lon="2.23731">
        <ele>156</ele>
        <time>2018-04-17T09:50:18Z</time>
      </trkpt>
      <trkpt lat="47.03003" lon="2.23711">
        <ele>156</ele>
        <time>2018-04-17T09:50:24Z</time>
      </trkpt>
      <trkpt lat="47.02998" lon="2.23687">
        <ele>156</ele>
        <time>2018-04-17T09:50:31Z</time>
      </trkpt>
      <trkpt lat="47.02995" lon="2.23667">
        <ele>156</ele>
        <time>2018-04-17T09:50:37Z</time>
      </trkpt>
      <trkpt lat="47.02993" lon="2.23642">
        <ele>154</ele>
        <time>2018-04-17T09:50:42Z</time>
      </trkpt>
      <trkpt lat="47.02984" lon="2.23613">
        <ele>153</ele>
        <time>2018-04-17T09:50:47Z</time>
      </trkpt>
      <trkpt lat="47.02974" lon="2.23579">
        <ele>150</ele>
        <time>2018-04-17T09:50:54Z</time>
      </trkpt>
      <trkpt lat="47.02968" lon="2.23558">
        <ele>150</ele>
        <time>2018-04-17T09:50:58Z</time>
      </trkpt>
      <trkpt lat="47.02966" lon="2.23552">
        <ele>149</ele>
        <time>2018-04-17T09:50:59Z</time>
      </trkpt>
      <trkpt lat="47.02957" lon="2.23515">
        <ele>149</ele>
        <time>2018-04-17T09:51:05Z</time>
      </trkpt>
      <trkpt lat="47.02954" lon="2.23502">
        <ele>149</ele>
        <time>2018-04-17T09:51:07Z</time>
      </trkpt>
      <trkpt lat="47.02946" lon="2.23469">
        <ele>147</ele>
        <time>2018-04-17T09:51:13Z</time>
      </trkpt>
      <trkpt lat="47.02943" lon="2.23458">
        <ele>147</ele>
        <time>2018-04-17T09:51:15Z</time>
      </trkpt>
      <trkpt lat="47.02938" lon="2.23439">
        <ele>147</ele>
        <time>2018-04-17T09:51:18Z</time>
      </trkpt>
      <trkpt lat="47.02935" lon="2.23425">
        <ele>147</ele>
        <time>2018-04-17T09:51:20Z</time>
      </trkpt>
      <trkpt lat="47.02927" lon="2.23381">
        <ele>146</ele>
        <time>2018-04-17T09:51:26Z</time>
      </trkpt>
      <trkpt lat="47.02925" lon="2.23365">
        <ele>145</ele>
        <time>2018-04-17T09:51:28Z</time>
      </trkpt>
      <trkpt lat="47.02924" lon="2.23357">
        <ele>145</ele>
        <time>2018-04-17T09:51:29Z</time>
      </trkpt>
      <trkpt lat="47.02922" lon="2.23314">
        <ele>145</ele>
        <time>2018-04-17T09:51:35Z</time>
      </trkpt>
      <trkpt lat="47.02921" lon="2.23252">
        <ele>144</ele>
        <time>2018-04-17T09:51:44Z</time>
      </trkpt>
      <trkpt lat="47.0292" lon="2.23209">
        <ele>145</ele>
        <time>2018-04-17T09:51:51Z</time>
      </trkpt>
      <trkpt lat="47.02919" lon="2.23153">
        <ele>145</ele>
        <time>2018-04-17T09:52:00Z</time>
      </trkpt>
      <trkpt lat="47.02918" lon="2.23079">
        <ele>144</ele>
        <time>2018-04-17T09:52:11Z</time>
      </trkpt>
      <trkpt lat="47.02919" lon="2.23027">
        <ele>143</ele>
        <time>2018-04-17T09:52:19Z</time>
      </trkpt>
      <trkpt lat="47.02919" lon="2.22981">
        <ele>141</ele>
        <time>2018-04-17T09:52:26Z</time>
      </trkpt>
      <trkpt lat="47.02919" lon="2.22968">
        <ele>141</ele>
        <time>2018-04-17T09:52:28Z</time>
      </trkpt>
      <trkpt lat="47.02918" lon="2.22941">
        <ele>141</ele>
        <time>2018-04-17T09:52:32Z</time>
      </trkpt>
      <trkpt lat="47.02917" lon="2.22912">
        <ele>140</ele>
        <time>2018-04-17T09:52:36Z</time>
      </trkpt>
      <trkpt lat="47.02916" lon="2.22888">
        <ele>139</ele>
        <time>2018-04-17T09:52:39Z</time>
      </trkpt>
      <trkpt lat="47.02914" lon="2.22865">
        <ele>138</ele>
        <time>2018-04-17T09:52:42Z</time>
      </trkpt>
      <trkpt lat="47.02912" lon="2.2285">
        <ele>138</ele>
        <time>2018-04-17T09:52:44Z</time>
      </trkpt>
      <trkpt lat="47.02912" lon="2.22842">
        <ele>138</ele>
        <time>2018-04-17T09:52:45Z</time>
      </trkpt>
      <trkpt lat="47.02911" lon="2.22793">
        <ele>136</ele>
        <time>2018-04-17T09:52:51Z</time>
      </trkpt>
      <trkpt lat="47.02911" lon="2.22784">
        <ele>136</ele>
        <time>2018-04-17T09:52:52Z</time>
      </trkpt>
      <trkpt lat="47.02911" lon="2.22768">
        <ele>135</ele>
        <time>2018-04-17T09:52:54Z</time>
      </trkpt>
      <trkpt lat="47.02912" lon="2.22727">
        <ele>134</ele>
        <time>2018-04-17T09:52:59Z</time>
      </trkpt>
      <trkpt lat="47.02912" lon="2.22704">
        <ele>133</ele>
        <time>2018-04-17T09:53:02Z</time>
      </trkpt>
      <trkpt lat="47.02912" lon="2.22692">
        <ele>133</ele>
        <time>2018-04-17T09:53:04Z</time>
      </trkpt>
      <trkpt lat="47.02914" lon="2.22687">
        <ele>132</ele>
        <time>2018-04-17T09:53:05Z</time>
      </trkpt>
      <trkpt lat="47.02925" lon="2.22681">
        <ele>132</ele>
        <time>2018-04-17T09:53:08Z</time>
      </trkpt>
      <trkpt lat="47.02933" lon="2.22681">
        <ele>132</ele>
        <time>2018-04-17T09:53:10Z</time>
      </trkpt>
      <trkpt lat="47.02942" lon="2.2268">
        <ele>132</ele>
        <time>2018-04-17T09:53:12Z</time>
      </trkpt>
      <trkpt lat="47.02969" lon="2.22675">
        <ele>132</ele>
        <time>2018-04-17T09:53:19Z</time>
      </trkpt>
      <trkpt lat="47.0297" lon="2.22674">
        <ele>132</ele>
        <time>2018-04-17T09:53:22Z</time>
      </trkpt>
      <trkpt lat="47.0297" lon="2.22674">
        <ele>132</ele>
        <time>2018-04-17T09:53:30Z</time>
      </trkpt>
      <trkpt lat="47.0297" lon="2.22674">
        <ele>132</ele>
        <time>2018-04-17T09:53:31Z</time>
      </trkpt>
      <trkpt lat="47.0297" lon="2.22674">
        <ele>132</ele>
        <time>2018-04-17T09:53:45Z</time>
      </trkpt>
      <trkpt lat="47.0297" lon="2.22674">
        <ele>132</ele>
        <time>2018-04-17T09:53:58Z</time>
      </trkpt>
      <trkpt lat="47.0297" lon="2.22674">
        <ele>132</ele>
        <time>2018-04-17T09:54:11Z</time>
      </trkpt>
      <trkpt lat="47.0297" lon="2.22674">
        <ele>132</ele>
        <time>2018-04-17T09:54:24Z</time>
      </trkpt>
      <trkpt lat="47.0297" lon="2.22674">
        <ele>132</ele>
        <time>2018-04-17T09:54:36Z</time>
      </trkpt>
      <trkpt lat="47.0297" lon="2.22674">
        <ele>132</ele>
        <time>2018-04-17T09:54:39Z</time>
      </trkpt>
      <trkpt lat="47.02971" lon="2.22674">
        <ele>132</ele>
        <time>2018-04-17T09:54:47Z</time>
      </trkpt>
      <trkpt lat="47.02975" lon="2.22663">
        <ele>131</ele>
        <time>2018-04-17T09:54:51Z</time>
      </trkpt>
      <trkpt lat="47.02972" lon="2.22647">
        <ele>131</ele>
        <time>2018-04-17T09:54:54Z</time>
      </trkpt>
      <trkpt lat="47.0297" lon="2.22634">
        <ele>130</ele>
        <time>2018-04-17T09:54:56Z</time>
      </trkpt>
      <trkpt lat="47.02968" lon="2.22621">
        <ele>130</ele>
        <time>2018-04-17T09:54:58Z</time>
      </trkpt>
      <trkpt lat="47.02962" lon="2.22586">
        <ele>130</ele>
        <time>2018-04-17T09:55:03Z</time>
      </trkpt>
      <trkpt lat="47.02957" lon="2.22554">
        <ele>128</ele>
        <time>2018-04-17T09:55:07Z</time>
      </trkpt>
      <trkpt lat="47.02956" lon="2.22545">
        <ele>128</ele>
        <time>2018-04-17T09:55:08Z</time>
      </trkpt>
      <trkpt lat="47.02954" lon="2.22528">
        <ele>128</ele>
        <time>2018-04-17T09:55:10Z</time>
      </trkpt>
      <trkpt lat="47.02952" lon="2.2252">
        <ele>128</ele>
        <time>2018-04-17T09:55:11Z</time>
      </trkpt>
      <trkpt lat="47.02951" lon="2.22511">
        <ele>128</ele>
        <time>2018-04-17T09:55:12Z</time>
      </trkpt>
      <trkpt lat="47.02948" lon="2.22493">
        <ele>127</ele>
        <time>2018-04-17T09:55:14Z</time>
      </trkpt>
      <trkpt lat="47.02947" lon="2.22484">
        <ele>126</ele>
        <time>2018-04-17T09:55:15Z</time>
      </trkpt>
      <trkpt lat="47.02945" lon="2.22475">
        <ele>126</ele>
        <time>2018-04-17T09:55:16Z</time>
      </trkpt>
      <trkpt lat="47.02944" lon="2.22466">
        <ele>126</ele>
        <time>2018-04-17T09:55:17Z</time>
      </trkpt>
      <trkpt lat="47.0294" lon="2.2244">
        <ele>126</ele>
        <time>2018-04-17T09:55:20Z</time>
      </trkpt>
      <trkpt lat="47.02933" lon="2.22403">
        <ele>125</ele>
        <time>2018-04-17T09:55:25Z</time>
      </trkpt>
      <trkpt lat="47.02931" lon="2.22379">
        <ele>124</ele>
        <time>2018-04-17T09:55:30Z</time>
      </trkpt>
      <trkpt lat="47.02941" lon="2.22375">
        <ele>124</ele>
        <time>2018-04-17T09:55:34Z</time>
      </trkpt>
      <trkpt lat="47.02959" lon="2.22369">
        <ele>124</ele>
        <time>2018-04-17T09:55:40Z</time>
      </trkpt>
      <trkpt lat="47.02979" lon="2.22365">
        <ele>123</ele>
        <time>2018-04-17T09:55:45Z</time>
      </trkpt>
      <trkpt lat="47.03009" lon="2.22364">
        <ele>122</ele>
        <time>2018-04-17T09:55:52Z</time>
      </trkpt>
      <trkpt lat="47.03043" lon="2.22368">
        <ele>123</ele>
        <time>2018-04-17T09:56:00Z</time>
      </trkpt>
      <trkpt lat="47.03069" lon="2.22374">
        <ele>123</ele>
        <time>2018-04-17T09:56:07Z</time>
      </trkpt>
      <trkpt lat="47.03076" lon="2.22375">
        <ele>123</ele>
        <time>2018-04-17T09:56:09Z</time>
      </trkpt>
      <trkpt lat="47.03109" lon="2.22378">
        <ele>125</ele>
        <time>2018-04-17T09:56:18Z</time>
      </trkpt>
      <trkpt lat="47.03133" lon="2.22376">
        <ele>126</ele>
        <time>2018-04-17T09:56:25Z</time>
      </trkpt>
      <trkpt lat="47.03167" lon="2.22369">
        <ele>129</ele>
        <time>2018-04-17T09:56:34Z</time>
      </trkpt>
      <trkpt lat="47.0317" lon="2.22367">
        <ele>129</ele>
        <time>2018-04-17T09:56:35Z</time>
      </trkpt>
      <trkpt lat="47.0319" lon="2.2236">
        <ele>129</ele>
        <time>2018-04-17T09:56:41Z</time>
      </trkpt>
      <trkpt lat="47.03201" lon="2.22356">
        <ele>130</ele>
        <time>2018-04-17T09:56:44Z</time>
      </trkpt>
      <trkpt lat="47.03215" lon="2.22351">
        <ele>130</ele>
        <time>2018-04-17T09:56:48Z</time>
      </trkpt>
      <trkpt lat="47.0323" lon="2.22344">
        <ele>131</ele>
        <time>2018-04-17T09:56:52Z</time>
      </trkpt>
      <trkpt lat="47.03234" lon="2.22342">
        <ele>131</ele>
        <time>2018-04-17T09:56:53Z</time>
      </trkpt>
      <trkpt lat="47.03261" lon="2.22323">
        <ele>132</ele>
        <time>2018-04-17T09:57:01Z</time>
      </trkpt>
      <trkpt lat="47.03268" lon="2.22318">
        <ele>132</ele>
        <time>2018-04-17T09:57:03Z</time>
      </trkpt>
      <trkpt lat="47.03288" lon="2.223">
        <ele>133</ele>
        <time>2018-04-17T09:57:09Z</time>
      </trkpt>
      <trkpt lat="47.03299" lon="2.22288">
        <ele>133</ele>
        <time>2018-04-17T09:57:13Z</time>
      </trkpt>
      <trkpt lat="47.03315" lon="2.2227">
        <ele>134</ele>
        <time>2018-04-17T09:57:19Z</time>
      </trkpt>
      <trkpt lat="47.03317" lon="2.22268">
        <ele>134</ele>
        <time>2018-04-17T09:57:20Z</time>
      </trkpt>
      <trkpt lat="47.03341" lon="2.22245">
        <ele>135</ele>
        <time>2018-04-17T09:57:29Z</time>
      </trkpt>
      <trkpt lat="47.03349" lon="2.22238">
        <ele>136</ele>
        <time>2018-04-17T09:57:32Z</time>
      </trkpt>
      <trkpt lat="47.03362" lon="2.22221">
        <ele>136</ele>
        <time>2018-04-17T09:57:38Z</time>
      </trkpt>
      <trkpt lat="47.03367" lon="2.22216">
        <ele>136</ele>
        <time>2018-04-17T09:57:40Z</time>
      </trkpt>
      <trkpt lat="47.03379" lon="2.22206">
        <ele>136</ele>
        <time>2018-04-17T09:57:45Z</time>
      </trkpt>
      <trkpt lat="47.03391" lon="2.22195">
        <ele>137</ele>
        <time>2018-04-17T09:57:50Z</time>
      </trkpt>
      <trkpt lat="47.03403" lon="2.22181">
        <ele>137</ele>
        <time>2018-04-17T09:57:55Z</time>
      </trkpt>
      <trkpt lat="47.03413" lon="2.22172">
        <ele>138</ele>
        <time>2018-04-17T09:57:59Z</time>
      </trkpt>
      <trkpt lat="47.03423" lon="2.2216">
        <ele>139</ele>
        <time>2018-04-17T09:58:03Z</time>
      </trkpt>
      <trkpt lat="47.03435" lon="2.22145">
        <ele>139</ele>
        <time>2018-04-17T09:58:08Z</time>
      </trkpt>
      <trkpt lat="47.03442" lon="2.22137">
        <ele>140</ele>
        <time>2018-04-17T09:58:11Z</time>
      </trkpt>
      <trkpt lat="47.03457" lon="2.22116">
        <ele>140</ele>
        <time>2018-04-17T09:58:18Z</time>
      </trkpt>
      <trkpt lat="47.03462" lon="2.22109">
        <ele>140</ele>
        <time>2018-04-17T09:58:20Z</time>
      </trkpt>
      <trkpt lat="47.03482" lon="2.22082">
        <ele>139</ele>
        <time>2018-04-17T09:58:29Z</time>
      </trkpt>
      <trkpt lat="47.035" lon="2.22061">
        <ele>138</ele>
        <time>2018-04-17T09:58:38Z</time>
      </trkpt>
      <trkpt lat="47.03518" lon="2.22044">
        <ele>143</ele>
        <time>2018-04-17T09:58:47Z</time>
      </trkpt>
      <trkpt lat="47.0352" lon="2.22041">
        <ele>143</ele>
        <time>2018-04-17T09:58:48Z</time>
      </trkpt>
      <trkpt lat="47.03534" lon="2.22026">
        <ele>143</ele>
        <time>2018-04-17T09:58:54Z</time>
      </trkpt>
      <trkpt lat="47.0355" lon="2.22011">
        <ele>144</ele>
        <time>2018-04-17T09:59:00Z</time>
      </trkpt>
      <trkpt lat="47.03556" lon="2.22006">
        <ele>145</ele>
        <time>2018-04-17T09:59:02Z</time>
      </trkpt>
      <trkpt lat="47.0357" lon="2.21989">
        <ele>143</ele>
        <time>2018-04-17T09:59:08Z</time>
      </trkpt>
      <trkpt lat="47.03583" lon="2.21972">
        <ele>142</ele>
        <time>2018-04-17T09:59:14Z</time>
      </trkpt>
      <trkpt lat="47.03584" lon="2.2197">
        <ele>146</ele>
        <time>2018-04-17T09:59:15Z</time>
      </trkpt>
      <trkpt lat="47.03585" lon="2.21969">
        <ele>146</ele>
        <time>2018-04-17T09:59:16Z</time>
      </trkpt>
      <trkpt lat="47.03589" lon="2.21968">
        <ele>146</ele>
        <time>2018-04-17T09:59:18Z</time>
      </trkpt>
      <trkpt lat="47.03592" lon="2.2197">
        <ele>146</ele>
        <time>2018-04-17T09:59:20Z</time>
      </trkpt>
      <trkpt lat="47.03599" lon="2.21975">
        <ele>146</ele>
        <time>2018-04-17T09:59:24Z</time>
      </trkpt>
      <trkpt lat="47.03602" lon="2.21978">
        <ele>146</ele>
        <time>2018-04-17T09:59:26Z</time>
      </trkpt>
      <trkpt lat="47.03616" lon="2.21992">
        <ele>147</ele>
        <time>2018-04-17T09:59:32Z</time>
      </trkpt>
      <trkpt lat="47.0362" lon="2.21996">
        <ele>147</ele>
        <time>2018-04-17T09:59:34Z</time>
      </trkpt>
      <trkpt lat="47.03631" lon="2.22007">
        <ele>150</ele>
        <time>2018-04-17T09:59:39Z</time>
      </trkpt>
      <trkpt lat="47.03644" lon="2.22021">
        <ele>151</ele>
        <time>2018-04-17T09:59:46Z</time>
      </trkpt>
      <trkpt lat="47.03656" lon="2.22034">
        <ele>151</ele>
        <time>2018-04-17T09:59:52Z</time>
      </trkpt>
      <trkpt lat="47.03659" lon="2.22035">
        <ele>151</ele>
        <time>2018-04-17T09:59:53Z</time>
      </trkpt>
      <trkpt lat="47.03674" lon="2.22049">
        <ele>152</ele>
        <time>2018-04-17T09:59:59Z</time>
      </trkpt>
      <trkpt lat="47.03676" lon="2.22051">
        <ele>152</ele>
        <time>2018-04-17T10:00:00Z</time>
      </trkpt>
      <trkpt lat="47.03693" lon="2.22065">
        <ele>152</ele>
        <time>2018-04-17T10:00:07Z</time>
      </trkpt>
      <trkpt lat="47.03713" lon="2.22085">
        <ele>154</ele>
        <time>2018-04-17T10:00:14Z</time>
      </trkpt>
      <trkpt lat="47.03726" lon="2.22098">
        <ele>153</ele>
        <time>2018-04-17T10:00:19Z</time>
      </trkpt>
      <trkpt lat="47.03743" lon="2.22115">
        <ele>153</ele>
        <time>2018-04-17T10:00:26Z</time>
      </trkpt>
      <trkpt lat="47.03758" lon="2.22128">
        <ele>151</ele>
        <time>2018-04-17T10:00:32Z</time>
      </trkpt>
      <trkpt lat="47.03767" lon="2.22137">
        <ele>151</ele>
        <time>2018-04-17T10:00:38Z</time>
      </trkpt>
      <trkpt lat="47.03779" lon="2.22151">
        <ele>151</ele>
        <time>2018-04-17T10:00:45Z</time>
      </trkpt>
      <trkpt lat="47.03792" lon="2.22171">
        <ele>152</ele>
        <time>2018-04-17T10:00:50Z</time>
      </trkpt>
      <trkpt lat="47.03807" lon="2.22199">
        <ele>151</ele>
        <time>2018-04-17T10:00:58Z</time>
      </trkpt>
      <trkpt lat="47.03818" lon="2.22226">
        <ele>151</ele>
        <time>2018-04-17T10:01:05Z</time>
      </trkpt>
      <trkpt lat="47.03826" lon="2.22251">
        <ele>151</ele>
        <time>2018-04-17T10:01:12Z</time>
      </trkpt>
      <trkpt lat="47.03835" lon="2.22279">
        <ele>150</ele>
        <time>2018-04-17T10:01:19Z</time>
      </trkpt>
      <trkpt lat="47.03848" lon="2.22315">
        <ele>150</ele>
        <time>2018-04-17T10:01:28Z</time>
      </trkpt>
      <trkpt lat="47.03849" lon="2.22319">
        <ele>151</ele>
        <time>2018-04-17T10:01:30Z</time>
      </trkpt>
      <trkpt lat="47.03851" lon="2.22323">
        <ele>151</ele>
        <time>2018-04-17T10:01:32Z</time>
      </trkpt>
      <trkpt lat="47.03858" lon="2.22343">
        <ele>152</ele>
        <time>2018-04-17T10:01:38Z</time>
      </trkpt>
      <trkpt lat="47.03868" lon="2.22361">
        <ele>152</ele>
        <time>2018-04-17T10:01:44Z</time>
      </trkpt>
      <trkpt lat="47.0388" lon="2.2237">
        <ele>151</ele>
        <time>2018-04-17T10:01:48Z</time>
      </trkpt>
      <trkpt lat="47.03883" lon="2.22371">
        <ele>151</ele>
        <time>2018-04-17T10:01:49Z</time>
      </trkpt>
      <trkpt lat="47.0389" lon="2.22371">
        <ele>151</ele>
        <time>2018-04-17T10:01:53Z</time>
      </trkpt>
      <trkpt lat="47.03892" lon="2.22372">
        <ele>151</ele>
        <time>2018-04-17T10:02:00Z</time>
      </trkpt>
      <trkpt lat="47.03898" lon="2.22373">
        <ele>151</ele>
        <time>2018-04-17T10:02:08Z</time>
      </trkpt>
      <trkpt lat="47.03918" lon="2.22376">
        <ele>149</ele>
        <time>2018-04-17T10:02:15Z</time>
      </trkpt>
      <trkpt lat="47.0394" lon="2.22379">
        <ele>149</ele>
        <time>2018-04-17T10:02:21Z</time>
      </trkpt>
      <trkpt lat="47.03951" lon="2.2238">
        <ele>149</ele>
        <time>2018-04-17T10:02:24Z</time>
      </trkpt>
      <trkpt lat="47.03967" lon="2.22382">
        <ele>149</ele>
        <time>2018-04-17T10:02:28Z</time>
      </trkpt>
      <trkpt lat="47.03985" lon="2.22384">
        <ele>149</ele>
        <time>2018-04-17T10:02:32Z</time>
      </trkpt>
      <trkpt lat="47.04009" lon="2.22384">
        <ele>148</ele>
        <time>2018-04-17T10:02:37Z</time>
      </trkpt>
      <trkpt lat="47.04032" lon="2.22384">
        <ele>148</ele>
        <time>2018-04-17T10:02:43Z</time>
      </trkpt>
      <trkpt lat="47.04033" lon="2.22385">
        <ele>148</ele>
        <time>2018-04-17T10:02:44Z</time>
      </trkpt>
      <trkpt lat="47.04045" lon="2.2239">
        <ele>148</ele>
        <time>2018-04-17T10:02:49Z</time>
      </trkpt>
      <trkpt lat="47.04049" lon="2.2239">
        <ele>148</ele>
        <time>2018-04-17T10:02:50Z</time>
      </trkpt>
      <trkpt lat="47.04054" lon="2.22389">
        <ele>148</ele>
        <time>2018-04-17T10:02:52Z</time>
      </trkpt>
      <trkpt lat="47.04071" lon="2.22391">
        <ele>147</ele>
        <time>2018-04-17T10:02:56Z</time>
      </trkpt>
      <trkpt lat="47.04073" lon="2.22391">
        <ele>147</ele>
        <time>2018-04-17T10:02:57Z</time>
      </trkpt>
      <trkpt lat="47.04089" lon="2.2239">
        <ele>147</ele>
        <time>2018-04-17T10:03:01Z</time>
      </trkpt>
      <trkpt lat="47.04099" lon="2.22391">
        <ele>147</ele>
        <time>2018-04-17T10:03:03Z</time>
      </trkpt>
      <trkpt lat="47.04104" lon="2.22392">
        <ele>147</ele>
        <time>2018-04-17T10:03:04Z</time>
      </trkpt>
      <trkpt lat="47.04118" lon="2.22392">
        <ele>147</ele>
        <time>2018-04-17T10:03:07Z</time>
      </trkpt>
      <trkpt lat="47.04133" lon="2.22394">
        <ele>147</ele>
        <time>2018-04-17T10:03:10Z</time>
      </trkpt>
      <trkpt lat="47.04144" lon="2.22394">
        <ele>147</ele>
        <time>2018-04-17T10:03:12Z</time>
      </trkpt>
      <trkpt lat="47.04173" lon="2.22399">
        <ele>146</ele>
        <time>2018-04-17T10:03:15Z</time>
      </trkpt>
      <trkpt lat="47.04193" lon="2.22399">
        <ele>146</ele>
        <time>2018-04-17T10:03:18Z</time>
      </trkpt>
      <trkpt lat="47.04217" lon="2.22402">
        <ele>145</ele>
        <time>2018-04-17T10:03:22Z</time>
      </trkpt>
      <trkpt lat="47.04229" lon="2.22404">
        <ele>145</ele>
        <time>2018-04-17T10:03:24Z</time>
      </trkpt>
      <trkpt lat="47.04242" lon="2.22405">
        <ele>145</ele>
        <time>2018-04-17T10:03:26Z</time>
      </trkpt>
      <trkpt lat="47.04262" lon="2.22407">
        <ele>144</ele>
        <time>2018-04-17T10:03:29Z</time>
      </trkpt>
      <trkpt lat="47.04288" lon="2.22409">
        <ele>143</ele>
        <time>2018-04-17T10:03:33Z</time>
      </trkpt>
      <trkpt lat="47.04303" lon="2.2241">
        <ele>143</ele>
        <time>2018-04-17T10:03:36Z</time>
      </trkpt>
      <trkpt lat="47.04314" lon="2.22409">
        <ele>142</ele>
        <time>2018-04-17T10:03:38Z</time>
      </trkpt>
      <trkpt lat="47.0433" lon="2.22411">
        <ele>142</ele>
        <time>2018-04-17T10:03:42Z</time>
      </trkpt>
      <trkpt lat="47.04342" lon="2.22413">
        <ele>141</ele>
        <time>2018-04-17T10:03:46Z</time>
      </trkpt>
      <trkpt lat="47.04346" lon="2.22413">
        <ele>141</ele>
        <time>2018-04-17T10:03:47Z</time>
      </trkpt>
      <trkpt lat="47.04377" lon="2.22419">
        <ele>140</ele>
        <time>2018-04-17T10:03:55Z</time>
      </trkpt>
      <trkpt lat="47.04407" lon="2.2242">
        <ele>140</ele>
        <time>2018-04-17T10:04:02Z</time>
      </trkpt>
      <trkpt lat="47.0444" lon="2.22422">
        <ele>140</ele>
        <time>2018-04-17T10:04:10Z</time>
      </trkpt>
      <trkpt lat="47.04461" lon="2.22425">
        <ele>140</ele>
        <time>2018-04-17T10:04:16Z</time>
      </trkpt>
      <trkpt lat="47.04469" lon="2.22426">
        <ele>140</ele>
        <time>2018-04-17T10:04:18Z</time>
      </trkpt>
      <trkpt lat="47.0449" lon="2.22429">
        <ele>139</ele>
        <time>2018-04-17T10:04:24Z</time>
      </trkpt>
      <trkpt lat="47.04513" lon="2.22432">
        <ele>140</ele>
        <time>2018-04-17T10:04:30Z</time>
      </trkpt>
      <trkpt lat="47.04537" lon="2.22434">
        <ele>140</ele>
        <time>2018-04-17T10:04:36Z</time>
      </trkpt>
      <trkpt lat="47.04571" lon="2.22431">
        <ele>140</ele>
        <time>2018-04-17T10:04:44Z</time>
      </trkpt>
      <trkpt lat="47.04601" lon="2.22437">
        <ele>140</ele>
        <time>2018-04-17T10:04:50Z</time>
      </trkpt>
      <trkpt lat="47.04622" lon="2.22442">
        <ele>140</ele>
        <time>2018-04-17T10:04:54Z</time>
      </trkpt>
      <trkpt lat="47.0463" lon="2.22443">
        <ele>140</ele>
        <time>2018-04-17T10:04:56Z</time>
      </trkpt>
      <trkpt lat="47.0465" lon="2.22442">
        <ele>140</ele>
        <time>2018-04-17T10:05:01Z</time>
      </trkpt>
      <trkpt lat="47.04662" lon="2.22442">
        <ele>139</ele>
        <time>2018-04-17T10:05:04Z</time>
      </trkpt>
      <trkpt lat="47.04682" lon="2.22448">
        <ele>138</ele>
        <time>2018-04-17T10:05:08Z</time>
      </trkpt>
      <trkpt lat="47.04721" lon="2.22456">
        <ele>137</ele>
        <time>2018-04-17T10:05:15Z</time>
      </trkpt>
      <trkpt lat="47.04737" lon="2.22458">
        <ele>137</ele>
        <time>2018-04-17T10:05:18Z</time>
      </trkpt>
      <trkpt lat="47.04746" lon="2.22461">
        <ele>137</ele>
        <time>2018-04-17T10:05:20Z</time>
      </trkpt>
      <trkpt lat="47.04756" lon="2.22465">
        <ele>132</ele>
        <time>2018-04-17T10:05:22Z</time>
      </trkpt>
      <trkpt lat="47.04768" lon="2.22466">
        <ele>132</ele>
        <time>2018-04-17T10:05:24Z</time>
      </trkpt>
      <trkpt lat="47.0478" lon="2.22466">
        <ele>131</ele>
        <time>2018-04-17T10:05:26Z</time>
      </trkpt>
      <trkpt lat="47.04786" lon="2.22466">
        <ele>130</ele>
        <time>2018-04-17T10:05:27Z</time>
      </trkpt>
      <trkpt lat="47.04794" lon="2.22466">
        <ele>130</ele>
        <time>2018-04-17T10:05:28Z</time>
      </trkpt>
      <trkpt lat="47.0481" lon="2.22469">
        <ele>129</ele>
        <time>2018-04-17T10:05:30Z</time>
      </trkpt>
      <trkpt lat="47.04837" lon="2.22473">
        <ele>123</ele>
        <time>2018-04-17T10:05:33Z</time>
      </trkpt>
      <trkpt lat="47.04847" lon="2.22476">
        <ele>123</ele>
        <time>2018-04-17T10:05:34Z</time>
      </trkpt>
      <trkpt lat="47.04866" lon="2.2248">
        <ele>122</ele>
        <time>2018-04-17T10:05:36Z</time>
      </trkpt>
      <trkpt lat="47.04901" lon="2.22487">
        <ele>120</ele>
        <time>2018-04-17T10:05:40Z</time>
      </trkpt>
      <trkpt lat="47.04924" lon="2.22491">
        <ele>119</ele>
        <time>2018-04-17T10:05:43Z</time>
      </trkpt>
      <trkpt lat="47.04972" lon="2.225">
        <ele>118</ele>
        <time>2018-04-17T10:05:50Z</time>
      </trkpt>
      <trkpt lat="47.04984" lon="2.22502">
        <ele>118</ele>
        <time>2018-04-17T10:05:52Z</time>
      </trkpt>
      <trkpt lat="47.05024" lon="2.2251">
        <ele>118</ele>
        <time>2018-04-17T10:05:59Z</time>
      </trkpt>
      <trkpt lat="47.05063" lon="2.22516">
        <ele>118</ele>
        <time>2018-04-17T10:06:07Z</time>
      </trkpt>
      <trkpt lat="47.05067" lon="2.22519">
        <ele>118</ele>
        <time>2018-04-17T10:06:08Z</time>
      </trkpt>
      <trkpt lat="47.05077" lon="2.22521">
        <ele>118</ele>
        <time>2018-04-17T10:06:10Z</time>
      </trkpt>
      <trkpt lat="47.05081" lon="2.22519">
        <ele>118</ele>
        <time>2018-04-17T10:06:11Z</time>
      </trkpt>
      <trkpt lat="47.05094" lon="2.22525">
        <ele>119</ele>
        <time>2018-04-17T10:06:14Z</time>
      </trkpt>
      <trkpt lat="47.05104" lon="2.22526">
        <ele>119</ele>
        <time>2018-04-17T10:06:16Z</time>
      </trkpt>
      <trkpt lat="47.05128" lon="2.22529">
        <ele>119</ele>
        <time>2018-04-17T10:06:21Z</time>
      </trkpt>
      <trkpt lat="47.05137" lon="2.22529">
        <ele>120</ele>
        <time>2018-04-17T10:06:23Z</time>
      </trkpt>
      <trkpt lat="47.05155" lon="2.22533">
        <ele>120</ele>
        <time>2018-04-17T10:06:27Z</time>
      </trkpt>
      <trkpt lat="47.05163" lon="2.22535">
        <ele>120</ele>
        <time>2018-04-17T10:06:29Z</time>
      </trkpt>
      <trkpt lat="47.05176" lon="2.22539">
        <ele>121</ele>
        <time>2018-04-17T10:06:33Z</time>
      </trkpt>
      <trkpt lat="47.05179" lon="2.22539">
        <ele>121</ele>
        <time>2018-04-17T10:06:34Z</time>
      </trkpt>
      <trkpt lat="47.05186" lon="2.22545">
        <ele>121</ele>
        <time>2018-04-17T10:06:37Z</time>
      </trkpt>
      <trkpt lat="47.0519" lon="2.22549">
        <ele>122</ele>
        <time>2018-04-17T10:06:39Z</time>
      </trkpt>
      <trkpt lat="47.05203" lon="2.22562">
        <ele>122</ele>
        <time>2018-04-17T10:06:45Z</time>
      </trkpt>
      <trkpt lat="47.05213" lon="2.22567">
        <ele>122</ele>
        <time>2018-04-17T10:06:49Z</time>
      </trkpt>
      <trkpt lat="47.05217" lon="2.22572">
        <ele>122</ele>
        <time>2018-04-17T10:06:51Z</time>
      </trkpt>
      <trkpt lat="47.05218" lon="2.22575">
        <ele>122</ele>
        <time>2018-04-17T10:06:52Z</time>
      </trkpt>
      <trkpt lat="47.05222" lon="2.22586">
        <ele>122</ele>
        <time>2018-04-17T10:06:55Z</time>
      </trkpt>
      <trkpt lat="47.05234" lon="2.22622">
        <ele>122</ele>
        <time>2018-04-17T10:07:03Z</time>
      </trkpt>
      <trkpt lat="47.05249" lon="2.22657">
        <ele>122</ele>
        <time>2018-04-17T10:07:10Z</time>
      </trkpt>
      <trkpt lat="47.05259" lon="2.22675">
        <ele>122</ele>
        <time>2018-04-17T10:07:14Z</time>
      </trkpt>
      <trkpt lat="47.05261" lon="2.2268">
        <ele>122</ele>
        <time>2018-04-17T10:07:15Z</time>
      </trkpt>
      <trkpt lat="47.05268" lon="2.22693">
        <ele>122</ele>
        <time>2018-04-17T10:07:18Z</time>
      </trkpt>
      <trkpt lat="47.05278" lon="2.22709">
        <ele>122</ele>
        <time>2018-04-17T10:07:22Z</time>
      </trkpt>
      <trkpt lat="47.05295" lon="2.22741">
        <ele>122</ele>
        <time>2018-04-17T10:07:31Z</time>
      </trkpt>
      <trkpt lat="47.05296" lon="2.22743">
        <ele>122</ele>
        <time>2018-04-17T10:07:35Z</time>
      </trkpt>
      <trkpt lat="47.05296" lon="2.22742">
        <ele>122</ele>
        <time>2018-04-17T10:07:43Z</time>
      </trkpt>
      <trkpt lat="47.05296" lon="2.22742">
        <ele>122</ele>
        <time>2018-04-17T10:07:56Z</time>
      </trkpt>
      <trkpt lat="47.05296" lon="2.22742">
        <ele>122</ele>
        <time>2018-04-17T10:08:11Z</time>
      </trkpt>
      <trkpt lat="47.05296" lon="2.22743">
        <ele>122</ele>
        <time>2018-04-17T10:08:29Z</time>
      </trkpt>
      <trkpt lat="47.05296" lon="2.22743">
        <ele>122</ele>
        <time>2018-04-17T10:08:43Z</time>
      </trkpt>
      <trkpt lat="47.05297" lon="2.22742">
        <ele>122</ele>
        <time>2018-04-17T10:09:03Z</time>
      </trkpt>
      <trkpt lat="47.05296" lon="2.22743">
        <ele>122</ele>
        <time>2018-04-17T10:09:17Z</time>
      </trkpt>
      <trkpt lat="47.05294" lon="2.22744">
        <ele>122</ele>
        <time>2018-04-17T10:09:19Z</time>
      </trkpt>
      <trkpt lat="47.05294" lon="2.22746">
        <ele>122</ele>
        <time>2018-04-17T10:09:23Z</time>
      </trkpt>
      <trkpt lat="47.05294" lon="2.22746">
        <ele>122</ele>
        <time>2018-04-17T10:09:35Z</time>
      </trkpt>
      <trkpt lat="47.05294" lon="2.22746">
        <ele>122</ele>
        <time>2018-04-17T10:09:46Z</time>
      </trkpt>
      <trkpt lat="47.05294" lon="2.22746">
        <ele>122</ele>
        <time>2018-04-17T10:09:58Z</time>
      </trkpt>
      <trkpt lat="47.05294" lon="2.22746">
        <ele>122</ele>
        <time>2018-04-17T10:10:11Z</time>
      </trkpt>
      <trkpt lat="47.05294" lon="2.22746">
        <ele>122</ele>
        <time>2018-04-17T10:10:22Z</time>
      </trkpt>
      <trkpt lat="47.05294" lon="2.22746">
        <ele>122</ele>
        <time>2018-04-17T10:10:34Z</time>
      </trkpt>
      <trkpt lat="47.05294" lon="2.22746">
        <ele>122</ele>
        <time>2018-04-17T10:10:42Z</time>
      </trkpt>
      <trkpt lat="47.05294" lon="2.22746">
        <ele>122</ele>
        <time>2018-04-17T10:10:52Z</time>
      </trkpt>
      <trkpt lat="47.05294" lon="2.22746">
        <ele>122</ele>
        <time>2018-04-17T10:10:53Z</time>
      </trkpt>
      <trkpt lat="47.05294" lon="2.22746">
        <ele>122</ele>
        <time>2018-04-17T10:11:01Z</time>
      </trkpt>
      <trkpt lat="47.05294" lon="2.22746">
        <ele>122</ele>
        <time>2018-04-17T10:11:12Z</time>
      </trkpt>
      <trkpt lat="47.05295" lon="2.22746">
        <ele>122</ele>
        <time>2018-04-17T10:11:21Z</time>
      </trkpt>
      <trkpt lat="47.05295" lon="2.22746">
        <ele>122</ele>
        <time>2018-04-17T10:11:33Z</time>
      </trkpt>
      <trkpt lat="47.05295" lon="2.22746">
        <ele>122</ele>
        <time>2018-04-17T10:11:44Z</time>
      </trkpt>
      <trkpt lat="47.05295" lon="2.22746">
        <ele>122</ele>
        <time>2018-04-17T10:11:55Z</time>
      </trkpt>
      <trkpt lat="47.05295" lon="2.22746">
        <ele>122</ele>
        <time>2018-04-17T10:12:04Z</time>
      </trkpt>
      <trkpt lat="47.05295" lon="2.22746">
        <ele>122</ele>
        <time>2018-04-17T10:12:13Z</time>
      </trkpt>
      <trkpt lat="47.05295" lon="2.22746">
        <ele>122</ele>
        <time>2018-04-17T10:12:22Z</time>
      </trkpt>
      <trkpt lat="47.05295" lon="2.22746">
        <ele>122</ele>
        <time>2018-04-17T10:12:34Z</time>
      </trkpt>
      <trkpt lat="47.05295" lon="2.22746">
        <ele>122</ele>
        <time>2018-04-17T10:12:38Z</time>
      </trkpt>
      <trkpt lat="47.05295" lon="2.22746">
        <ele>122</ele>
        <time>2018-04-17T10:12:46Z</time>
      </trkpt>
      <trkpt lat="47.05295" lon="2.22746">
        <ele>122</ele>
        <time>2018-04-17T10:12:56Z</time>
      </trkpt>
      <trkpt lat="47.05295" lon="2.22746">
        <ele>122</ele>
        <time>2018-04-17T10:13:11Z</time>
      </trkpt>
      <trkpt lat="47.05295" lon="2.22746">
        <ele>122</ele>
        <time>2018-04-17T10:13:25Z</time>
      </trkpt>
      <trkpt lat="47.05295" lon="2.22746">
        <ele>122</ele>
        <time>2018-04-17T10:13:37Z</time>
      </trkpt>
      <trkpt lat="47.05297" lon="2.22749">
        <ele>122</ele>
        <time>2018-04-17T10:13:47Z</time>
      </trkpt>
      <trkpt lat="47.05306" lon="2.22766">
        <ele>122</ele>
        <time>2018-04-17T10:13:53Z</time>
      </trkpt>
      <trkpt lat="47.05321" lon="2.22792">
        <ele>121</ele>
        <time>2018-04-17T10:14:00Z</time>
      </trkpt>
    </trkseg>
  </trk>
</gpx>